<?xml version="1.0" encoding="UTF-8" standalone="no" ?>
<gpx xmlns="http://www.topografix.com/GPX/1/1" xmlns:xsi="http://www.w3.org/2001/XMLSchema-instance" xsi:schemaLocation="http://www.topografix.com/GPX/1/1 http://www.topografix.com/GPX/1/1/gpx.xsd" version="1.1" creator="VisuGPX - https://www.visugpx.com">
  <metadata>
    <name>St Zacharie St Jean du Puy 02-11-2012 </name>
    <desc><![CDATA[Sortie rando du vendredi 2 novembre 2012]]></desc>
  </metadata>
  <trk>
    <name><![CDATA[St Zacharie St Jean du Puy 02-11-2012]]></name>
    <trkseg>
      <trkpt lat="43.40097" lon="5.70238">
        <ele>319</ele>
        <time>2012-11-02T08:47:03Z</time>
      </trkpt>
      <trkpt lat="43.40112" lon="5.70245">
        <ele>325</ele>
        <time>2012-11-02T08:47:14Z</time>
      </trkpt>
      <trkpt lat="43.40129" lon="5.70245">
        <ele>328</ele>
        <time>2012-11-02T08:47:31Z</time>
      </trkpt>
      <trkpt lat="43.4014" lon="5.70248">
        <ele>328</ele>
        <time>2012-11-02T08:47:43Z</time>
      </trkpt>
      <trkpt lat="43.40157" lon="5.70249">
        <ele>330</ele>
        <time>2012-11-02T08:47:58Z</time>
      </trkpt>
      <trkpt lat="43.40174" lon="5.70254">
        <ele>333</ele>
        <time>2012-11-02T08:48:13Z</time>
      </trkpt>
      <trkpt lat="43.40191" lon="5.70261">
        <ele>337</ele>
        <time>2012-11-02T08:48:29Z</time>
      </trkpt>
      <trkpt lat="43.40204" lon="5.70261">
        <ele>337</ele>
        <time>2012-11-02T08:48:39Z</time>
      </trkpt>
      <trkpt lat="43.4021" lon="5.70251">
        <ele>338</ele>
        <time>2012-11-02T08:48:50Z</time>
      </trkpt>
      <trkpt lat="43.40225" lon="5.70236">
        <ele>338</ele>
        <time>2012-11-02T08:49:05Z</time>
      </trkpt>
      <trkpt lat="43.40237" lon="5.70229">
        <ele>341</ele>
        <time>2012-11-02T08:49:16Z</time>
      </trkpt>
      <trkpt lat="43.40251" lon="5.70218">
        <ele>342</ele>
        <time>2012-11-02T08:49:28Z</time>
      </trkpt>
      <trkpt lat="43.40258" lon="5.70213">
        <ele>343</ele>
        <time>2012-11-02T08:49:34Z</time>
      </trkpt>
      <trkpt lat="43.40268" lon="5.702">
        <ele>345</ele>
        <time>2012-11-02T08:49:45Z</time>
      </trkpt>
      <trkpt lat="43.40281" lon="5.70194">
        <ele>352</ele>
        <time>2012-11-02T08:49:59Z</time>
      </trkpt>
      <trkpt lat="43.40283" lon="5.70194">
        <ele>355</ele>
        <time>2012-11-02T08:50:01Z</time>
      </trkpt>
      <trkpt lat="43.4029" lon="5.70192">
        <ele>353</ele>
        <time>2012-11-02T08:50:07Z</time>
      </trkpt>
      <trkpt lat="43.40302" lon="5.70195">
        <ele>345</ele>
        <time>2012-11-02T08:50:18Z</time>
      </trkpt>
      <trkpt lat="43.4031" lon="5.70199">
        <ele>343</ele>
        <time>2012-11-02T08:50:25Z</time>
      </trkpt>
      <trkpt lat="43.40316" lon="5.70204">
        <ele>338</ele>
        <time>2012-11-02T08:50:38Z</time>
      </trkpt>
      <trkpt lat="43.40319" lon="5.70191">
        <ele>340</ele>
        <time>2012-11-02T08:50:50Z</time>
      </trkpt>
      <trkpt lat="43.40336" lon="5.7021">
        <ele>367</ele>
        <time>2012-11-02T08:51:29Z</time>
      </trkpt>
      <trkpt lat="43.40348" lon="5.70216">
        <ele>362</ele>
        <time>2012-11-02T08:51:46Z</time>
      </trkpt>
      <trkpt lat="43.40357" lon="5.7022">
        <ele>346</ele>
        <time>2012-11-02T08:51:59Z</time>
      </trkpt>
      <trkpt lat="43.40369" lon="5.70227">
        <ele>337</ele>
        <time>2012-11-02T08:52:12Z</time>
      </trkpt>
      <trkpt lat="43.40369" lon="5.70231">
        <ele>334</ele>
        <time>2012-11-02T08:52:16Z</time>
      </trkpt>
      <trkpt lat="43.40374" lon="5.70243">
        <ele>342</ele>
        <time>2012-11-02T08:52:29Z</time>
      </trkpt>
      <trkpt lat="43.40385" lon="5.70242">
        <ele>345</ele>
        <time>2012-11-02T08:52:39Z</time>
      </trkpt>
      <trkpt lat="43.4039" lon="5.70241">
        <ele>345</ele>
        <time>2012-11-02T08:52:44Z</time>
      </trkpt>
      <trkpt lat="43.404" lon="5.70238">
        <ele>346</ele>
        <time>2012-11-02T08:52:54Z</time>
      </trkpt>
      <trkpt lat="43.40413" lon="5.70236">
        <ele>347</ele>
        <time>2012-11-02T08:53:11Z</time>
      </trkpt>
      <trkpt lat="43.40426" lon="5.70235">
        <ele>342</ele>
        <time>2012-11-02T08:53:26Z</time>
      </trkpt>
      <trkpt lat="43.40438" lon="5.70236">
        <ele>353</ele>
        <time>2012-11-02T08:53:40Z</time>
      </trkpt>
      <trkpt lat="43.4045" lon="5.70227">
        <ele>355</ele>
        <time>2012-11-02T08:53:54Z</time>
      </trkpt>
      <trkpt lat="43.40463" lon="5.7023">
        <ele>369</ele>
        <time>2012-11-02T08:54:09Z</time>
      </trkpt>
      <trkpt lat="43.40473" lon="5.70235">
        <ele>376</ele>
        <time>2012-11-02T08:54:24Z</time>
      </trkpt>
      <trkpt lat="43.40483" lon="5.70238">
        <ele>369</ele>
        <time>2012-11-02T08:54:37Z</time>
      </trkpt>
      <trkpt lat="43.40493" lon="5.70234">
        <ele>364</ele>
        <time>2012-11-02T08:54:49Z</time>
      </trkpt>
      <trkpt lat="43.405" lon="5.7023">
        <ele>364</ele>
        <time>2012-11-02T08:54:57Z</time>
      </trkpt>
      <trkpt lat="43.4058" lon="5.70232">
        <ele>334</ele>
        <time>2012-11-02T08:57:03Z</time>
      </trkpt>
      <trkpt lat="43.40591" lon="5.7024">
        <ele>362</ele>
        <time>2012-11-02T08:57:24Z</time>
      </trkpt>
      <trkpt lat="43.40601" lon="5.7024">
        <ele>348</ele>
        <time>2012-11-02T08:57:37Z</time>
      </trkpt>
      <trkpt lat="43.40604" lon="5.70238">
        <ele>349</ele>
        <time>2012-11-02T08:57:41Z</time>
      </trkpt>
      <trkpt lat="43.40608" lon="5.70241">
        <ele>348</ele>
        <time>2012-11-02T08:57:44Z</time>
      </trkpt>
      <trkpt lat="43.40618" lon="5.70235">
        <ele>360</ele>
        <time>2012-11-02T08:58:00Z</time>
      </trkpt>
      <trkpt lat="43.40625" lon="5.70238">
        <ele>352</ele>
        <time>2012-11-02T08:58:12Z</time>
      </trkpt>
      <trkpt lat="43.40633" lon="5.70246">
        <ele>359</ele>
        <time>2012-11-02T08:58:25Z</time>
      </trkpt>
      <trkpt lat="43.40641" lon="5.70246">
        <ele>359</ele>
        <time>2012-11-02T08:58:37Z</time>
      </trkpt>
      <trkpt lat="43.40647" lon="5.70251">
        <ele>364</ele>
        <time>2012-11-02T08:58:50Z</time>
      </trkpt>
      <trkpt lat="43.40655" lon="5.70256">
        <ele>363</ele>
        <time>2012-11-02T08:59:01Z</time>
      </trkpt>
      <trkpt lat="43.40663" lon="5.70267">
        <ele>364</ele>
        <time>2012-11-02T08:59:16Z</time>
      </trkpt>
      <trkpt lat="43.40674" lon="5.70271">
        <ele>364</ele>
        <time>2012-11-02T08:59:30Z</time>
      </trkpt>
      <trkpt lat="43.40687" lon="5.70279">
        <ele>368</ele>
        <time>2012-11-02T08:59:47Z</time>
      </trkpt>
      <trkpt lat="43.40695" lon="5.70287">
        <ele>371</ele>
        <time>2012-11-02T09:00:01Z</time>
      </trkpt>
      <trkpt lat="43.40702" lon="5.70294">
        <ele>372</ele>
        <time>2012-11-02T09:00:14Z</time>
      </trkpt>
      <trkpt lat="43.4071" lon="5.70301">
        <ele>375</ele>
        <time>2012-11-02T09:00:25Z</time>
      </trkpt>
      <trkpt lat="43.40719" lon="5.7031">
        <ele>375</ele>
        <time>2012-11-02T09:00:40Z</time>
      </trkpt>
      <trkpt lat="43.40726" lon="5.70317">
        <ele>380</ele>
        <time>2012-11-02T09:00:55Z</time>
      </trkpt>
      <trkpt lat="43.40736" lon="5.70327">
        <ele>382</ele>
        <time>2012-11-02T09:01:12Z</time>
      </trkpt>
      <trkpt lat="43.40744" lon="5.70328">
        <ele>386</ele>
        <time>2012-11-02T09:01:26Z</time>
      </trkpt>
      <trkpt lat="43.40751" lon="5.70328">
        <ele>389</ele>
        <time>2012-11-02T09:01:40Z</time>
      </trkpt>
      <trkpt lat="43.40765" lon="5.70324">
        <ele>392</ele>
        <time>2012-11-02T09:01:59Z</time>
      </trkpt>
      <trkpt lat="43.40773" lon="5.70324">
        <ele>393</ele>
        <time>2012-11-02T09:02:12Z</time>
      </trkpt>
      <trkpt lat="43.40787" lon="5.70321">
        <ele>393</ele>
        <time>2012-11-02T09:02:31Z</time>
      </trkpt>
      <trkpt lat="43.40794" lon="5.7031">
        <ele>405</ele>
        <time>2012-11-02T09:02:44Z</time>
      </trkpt>
      <trkpt lat="43.40803" lon="5.70302">
        <ele>415</ele>
        <time>2012-11-02T09:03:00Z</time>
      </trkpt>
      <trkpt lat="43.40811" lon="5.70313">
        <ele>402</ele>
        <time>2012-11-02T09:03:14Z</time>
      </trkpt>
      <trkpt lat="43.40822" lon="5.70299">
        <ele>411</ele>
        <time>2012-11-02T09:03:31Z</time>
      </trkpt>
      <trkpt lat="43.40834" lon="5.70291">
        <ele>420</ele>
        <time>2012-11-02T09:03:48Z</time>
      </trkpt>
      <trkpt lat="43.40843" lon="5.70288">
        <ele>424</ele>
        <time>2012-11-02T09:04:02Z</time>
      </trkpt>
      <trkpt lat="43.40851" lon="5.70297">
        <ele>413</ele>
        <time>2012-11-02T09:04:14Z</time>
      </trkpt>
      <trkpt lat="43.40859" lon="5.70298">
        <ele>410</ele>
        <time>2012-11-02T09:04:31Z</time>
      </trkpt>
      <trkpt lat="43.40873" lon="5.70293">
        <ele>403</ele>
        <time>2012-11-02T09:04:49Z</time>
      </trkpt>
      <trkpt lat="43.4088" lon="5.70285">
        <ele>406</ele>
        <time>2012-11-02T09:05:02Z</time>
      </trkpt>
      <trkpt lat="43.4089" lon="5.70275">
        <ele>409</ele>
        <time>2012-11-02T09:05:19Z</time>
      </trkpt>
      <trkpt lat="43.409" lon="5.70262">
        <ele>416</ele>
        <time>2012-11-02T09:05:35Z</time>
      </trkpt>
      <trkpt lat="43.40913" lon="5.70254">
        <ele>419</ele>
        <time>2012-11-02T09:05:53Z</time>
      </trkpt>
      <trkpt lat="43.40921" lon="5.70243">
        <ele>415</ele>
        <time>2012-11-02T09:06:10Z</time>
      </trkpt>
      <trkpt lat="43.40924" lon="5.70241">
        <ele>412</ele>
        <time>2012-11-02T09:06:28Z</time>
      </trkpt>
      <trkpt lat="43.40925" lon="5.70235">
        <ele>409</ele>
        <time>2012-11-02T09:06:38Z</time>
      </trkpt>
      <trkpt lat="43.40926" lon="5.70226">
        <ele>407</ele>
        <time>2012-11-02T09:06:53Z</time>
      </trkpt>
      <trkpt lat="43.40925" lon="5.70222">
        <ele>405</ele>
        <time>2012-11-02T09:07:17Z</time>
      </trkpt>
      <trkpt lat="43.4092" lon="5.70219">
        <ele>408</ele>
        <time>2012-11-02T09:07:34Z</time>
      </trkpt>
      <trkpt lat="43.40921" lon="5.70213">
        <ele>407</ele>
        <time>2012-11-02T09:07:51Z</time>
      </trkpt>
      <trkpt lat="43.40925" lon="5.70211">
        <ele>407</ele>
        <time>2012-11-02T09:07:59Z</time>
      </trkpt>
      <trkpt lat="43.40935" lon="5.70206">
        <ele>407</ele>
        <time>2012-11-02T09:08:12Z</time>
      </trkpt>
      <trkpt lat="43.40943" lon="5.70205">
        <ele>410</ele>
        <time>2012-11-02T09:08:26Z</time>
      </trkpt>
      <trkpt lat="43.40951" lon="5.70202">
        <ele>407</ele>
        <time>2012-11-02T09:08:38Z</time>
      </trkpt>
      <trkpt lat="43.4096" lon="5.70194">
        <ele>410</ele>
        <time>2012-11-02T09:08:52Z</time>
      </trkpt>
      <trkpt lat="43.4097" lon="5.70185">
        <ele>413</ele>
        <time>2012-11-02T09:09:07Z</time>
      </trkpt>
      <trkpt lat="43.40982" lon="5.70174">
        <ele>414</ele>
        <time>2012-11-02T09:09:22Z</time>
      </trkpt>
      <trkpt lat="43.40987" lon="5.70173">
        <ele>414</ele>
        <time>2012-11-02T09:09:28Z</time>
      </trkpt>
      <trkpt lat="43.40999" lon="5.70161">
        <ele>418</ele>
        <time>2012-11-02T09:09:43Z</time>
      </trkpt>
      <trkpt lat="43.41005" lon="5.70155">
        <ele>419</ele>
        <time>2012-11-02T09:09:51Z</time>
      </trkpt>
      <trkpt lat="43.41018" lon="5.7015">
        <ele>418</ele>
        <time>2012-11-02T09:10:04Z</time>
      </trkpt>
      <trkpt lat="43.4102" lon="5.70155">
        <ele>419</ele>
        <time>2012-11-02T09:10:07Z</time>
      </trkpt>
      <trkpt lat="43.41029" lon="5.70174">
        <ele>421</ele>
        <time>2012-11-02T09:10:23Z</time>
      </trkpt>
      <trkpt lat="43.41035" lon="5.70171">
        <ele>424</ele>
        <time>2012-11-02T09:10:39Z</time>
      </trkpt>
      <trkpt lat="43.41041" lon="5.70161">
        <ele>425</ele>
        <time>2012-11-02T09:10:55Z</time>
      </trkpt>
      <trkpt lat="43.41051" lon="5.70145">
        <ele>426</ele>
        <time>2012-11-02T09:11:15Z</time>
      </trkpt>
      <trkpt lat="43.4106" lon="5.70133">
        <ele>427</ele>
        <time>2012-11-02T09:11:33Z</time>
      </trkpt>
      <trkpt lat="43.41062" lon="5.70132">
        <ele>427</ele>
        <time>2012-11-02T09:11:52Z</time>
      </trkpt>
      <trkpt lat="43.41069" lon="5.70122">
        <ele>429</ele>
        <time>2012-11-02T09:12:07Z</time>
      </trkpt>
      <trkpt lat="43.41077" lon="5.70115">
        <ele>429</ele>
        <time>2012-11-02T09:12:23Z</time>
      </trkpt>
      <trkpt lat="43.41086" lon="5.7011">
        <ele>430</ele>
        <time>2012-11-02T09:12:40Z</time>
      </trkpt>
      <trkpt lat="43.41097" lon="5.70109">
        <ele>431</ele>
        <time>2012-11-02T09:12:57Z</time>
      </trkpt>
      <trkpt lat="43.41105" lon="5.70109">
        <ele>430</ele>
        <time>2012-11-02T09:13:11Z</time>
      </trkpt>
      <trkpt lat="43.41114" lon="5.70107">
        <ele>435</ele>
        <time>2012-11-02T09:13:26Z</time>
      </trkpt>
      <trkpt lat="43.41124" lon="5.70105">
        <ele>436</ele>
        <time>2012-11-02T09:13:43Z</time>
      </trkpt>
      <trkpt lat="43.41134" lon="5.70105">
        <ele>438</ele>
        <time>2012-11-02T09:13:58Z</time>
      </trkpt>
      <trkpt lat="43.41146" lon="5.70104">
        <ele>441</ele>
        <time>2012-11-02T09:14:16Z</time>
      </trkpt>
      <trkpt lat="43.4116" lon="5.70101">
        <ele>443</ele>
        <time>2012-11-02T09:14:35Z</time>
      </trkpt>
      <trkpt lat="43.41174" lon="5.70095">
        <ele>447</ele>
        <time>2012-11-02T09:14:53Z</time>
      </trkpt>
      <trkpt lat="43.41188" lon="5.70091">
        <ele>451</ele>
        <time>2012-11-02T09:15:12Z</time>
      </trkpt>
      <trkpt lat="43.41196" lon="5.70086">
        <ele>450</ele>
        <time>2012-11-02T09:15:32Z</time>
      </trkpt>
      <trkpt lat="43.41201" lon="5.70085">
        <ele>449</ele>
        <time>2012-11-02T09:15:58Z</time>
      </trkpt>
      <trkpt lat="43.41209" lon="5.70082">
        <ele>452</ele>
        <time>2012-11-02T09:16:13Z</time>
      </trkpt>
      <trkpt lat="43.41219" lon="5.70073">
        <ele>456</ele>
        <time>2012-11-02T09:16:32Z</time>
      </trkpt>
      <trkpt lat="43.41229" lon="5.70062">
        <ele>453</ele>
        <time>2012-11-02T09:16:50Z</time>
      </trkpt>
      <trkpt lat="43.41236" lon="5.70051">
        <ele>454</ele>
        <time>2012-11-02T09:17:06Z</time>
      </trkpt>
      <trkpt lat="43.41243" lon="5.7004">
        <ele>454</ele>
        <time>2012-11-02T09:17:20Z</time>
      </trkpt>
      <trkpt lat="43.41247" lon="5.70026">
        <ele>454</ele>
        <time>2012-11-02T09:17:39Z</time>
      </trkpt>
      <trkpt lat="43.41248" lon="5.7001">
        <ele>457</ele>
        <time>2012-11-02T09:17:57Z</time>
      </trkpt>
      <trkpt lat="43.41255" lon="5.69994">
        <ele>456</ele>
        <time>2012-11-02T09:18:14Z</time>
      </trkpt>
      <trkpt lat="43.4126" lon="5.69981">
        <ele>457</ele>
        <time>2012-11-02T09:18:27Z</time>
      </trkpt>
      <trkpt lat="43.41267" lon="5.69968">
        <ele>463</ele>
        <time>2012-11-02T09:18:42Z</time>
      </trkpt>
      <trkpt lat="43.41275" lon="5.69954">
        <ele>465</ele>
        <time>2012-11-02T09:19:01Z</time>
      </trkpt>
      <trkpt lat="43.41282" lon="5.69948">
        <ele>466</ele>
        <time>2012-11-02T09:19:13Z</time>
      </trkpt>
      <trkpt lat="43.41291" lon="5.69937">
        <ele>467</ele>
        <time>2012-11-02T09:19:28Z</time>
      </trkpt>
      <trkpt lat="43.41296" lon="5.69928">
        <ele>471</ele>
        <time>2012-11-02T09:19:38Z</time>
      </trkpt>
      <trkpt lat="43.41305" lon="5.69921">
        <ele>471</ele>
        <time>2012-11-02T09:19:51Z</time>
      </trkpt>
      <trkpt lat="43.41316" lon="5.69912">
        <ele>475</ele>
        <time>2012-11-02T09:20:08Z</time>
      </trkpt>
      <trkpt lat="43.41325" lon="5.69904">
        <ele>476</ele>
        <time>2012-11-02T09:20:24Z</time>
      </trkpt>
      <trkpt lat="43.41333" lon="5.69895">
        <ele>477</ele>
        <time>2012-11-02T09:20:38Z</time>
      </trkpt>
      <trkpt lat="43.41343" lon="5.69885">
        <ele>478</ele>
        <time>2012-11-02T09:20:54Z</time>
      </trkpt>
      <trkpt lat="43.4135" lon="5.69881">
        <ele>482</ele>
        <time>2012-11-02T09:21:09Z</time>
      </trkpt>
      <trkpt lat="43.41359" lon="5.69882">
        <ele>484</ele>
        <time>2012-11-02T09:21:20Z</time>
      </trkpt>
      <trkpt lat="43.41372" lon="5.69877">
        <ele>483</ele>
        <time>2012-11-02T09:21:36Z</time>
      </trkpt>
      <trkpt lat="43.41382" lon="5.69872">
        <ele>485</ele>
        <time>2012-11-02T09:21:51Z</time>
      </trkpt>
      <trkpt lat="43.41393" lon="5.69868">
        <ele>485</ele>
        <time>2012-11-02T09:22:08Z</time>
      </trkpt>
      <trkpt lat="43.41402" lon="5.69862">
        <ele>488</ele>
        <time>2012-11-02T09:22:23Z</time>
      </trkpt>
      <trkpt lat="43.41413" lon="5.69859">
        <ele>487</ele>
        <time>2012-11-02T09:22:37Z</time>
      </trkpt>
      <trkpt lat="43.41425" lon="5.69858">
        <ele>488</ele>
        <time>2012-11-02T09:22:52Z</time>
      </trkpt>
      <trkpt lat="43.41437" lon="5.69859">
        <ele>490</ele>
        <time>2012-11-02T09:23:10Z</time>
      </trkpt>
      <trkpt lat="43.41447" lon="5.69862">
        <ele>490</ele>
        <time>2012-11-02T09:23:25Z</time>
      </trkpt>
      <trkpt lat="43.41454" lon="5.69861">
        <ele>493</ele>
        <time>2012-11-02T09:23:40Z</time>
      </trkpt>
      <trkpt lat="43.41464" lon="5.69857">
        <ele>498</ele>
        <time>2012-11-02T09:23:54Z</time>
      </trkpt>
      <trkpt lat="43.41481" lon="5.69854">
        <ele>497</ele>
        <time>2012-11-02T09:24:11Z</time>
      </trkpt>
      <trkpt lat="43.41493" lon="5.69857">
        <ele>497</ele>
        <time>2012-11-02T09:24:25Z</time>
      </trkpt>
      <trkpt lat="43.41501" lon="5.69864">
        <ele>499</ele>
        <time>2012-11-02T09:24:41Z</time>
      </trkpt>
      <trkpt lat="43.41506" lon="5.69865">
        <ele>498</ele>
        <time>2012-11-02T09:24:59Z</time>
      </trkpt>
      <trkpt lat="43.4151" lon="5.69862">
        <ele>497</ele>
        <time>2012-11-02T09:25:28Z</time>
      </trkpt>
      <trkpt lat="43.41515" lon="5.69864">
        <ele>503</ele>
        <time>2012-11-02T09:25:46Z</time>
      </trkpt>
      <trkpt lat="43.41521" lon="5.69873">
        <ele>504</ele>
        <time>2012-11-02T09:26:03Z</time>
      </trkpt>
      <trkpt lat="43.41529" lon="5.69881">
        <ele>505</ele>
        <time>2012-11-02T09:26:20Z</time>
      </trkpt>
      <trkpt lat="43.41537" lon="5.69886">
        <ele>505</ele>
        <time>2012-11-02T09:26:35Z</time>
      </trkpt>
      <trkpt lat="43.41544" lon="5.69891">
        <ele>508</ele>
        <time>2012-11-02T09:26:51Z</time>
      </trkpt>
      <trkpt lat="43.41549" lon="5.69896">
        <ele>513</ele>
        <time>2012-11-02T09:27:06Z</time>
      </trkpt>
      <trkpt lat="43.41558" lon="5.699">
        <ele>512</ele>
        <time>2012-11-02T09:27:20Z</time>
      </trkpt>
      <trkpt lat="43.41564" lon="5.69914">
        <ele>514</ele>
        <time>2012-11-02T09:27:37Z</time>
      </trkpt>
      <trkpt lat="43.41571" lon="5.69924">
        <ele>516</ele>
        <time>2012-11-02T09:27:55Z</time>
      </trkpt>
      <trkpt lat="43.41576" lon="5.69929">
        <ele>520</ele>
        <time>2012-11-02T09:28:08Z</time>
      </trkpt>
      <trkpt lat="43.41583" lon="5.69939">
        <ele>519</ele>
        <time>2012-11-02T09:28:24Z</time>
      </trkpt>
      <trkpt lat="43.41584" lon="5.6994">
        <ele>522</ele>
        <time>2012-11-02T09:28:42Z</time>
      </trkpt>
      <trkpt lat="43.41592" lon="5.6995">
        <ele>521</ele>
        <time>2012-11-02T09:29:02Z</time>
      </trkpt>
      <trkpt lat="43.41587" lon="5.69951">
        <ele>517</ele>
        <time>2012-11-02T09:29:29Z</time>
      </trkpt>
      <trkpt lat="43.41588" lon="5.69953">
        <ele>519</ele>
        <time>2012-11-02T09:29:56Z</time>
      </trkpt>
      <trkpt lat="43.4159" lon="5.69961">
        <ele>524</ele>
        <time>2012-11-02T09:30:12Z</time>
      </trkpt>
      <trkpt lat="43.41593" lon="5.69963">
        <ele>524</ele>
        <time>2012-11-02T09:30:29Z</time>
      </trkpt>
      <trkpt lat="43.41592" lon="5.69962">
        <ele>522</ele>
        <time>2012-11-02T09:30:51Z</time>
      </trkpt>
      <trkpt lat="43.41594" lon="5.69966">
        <ele>507</ele>
        <time>2012-11-02T09:31:19Z</time>
      </trkpt>
      <trkpt lat="43.41597" lon="5.69962">
        <ele>531</ele>
        <time>2012-11-02T09:31:43Z</time>
      </trkpt>
      <trkpt lat="43.41594" lon="5.69965">
        <ele>530</ele>
        <time>2012-11-02T09:32:00Z</time>
      </trkpt>
      <trkpt lat="43.41598" lon="5.69976">
        <ele>527</ele>
        <time>2012-11-02T09:32:22Z</time>
      </trkpt>
      <trkpt lat="43.41601" lon="5.69987">
        <ele>527</ele>
        <time>2012-11-02T09:32:37Z</time>
      </trkpt>
      <trkpt lat="43.416" lon="5.69998">
        <ele>528</ele>
        <time>2012-11-02T09:32:54Z</time>
      </trkpt>
      <trkpt lat="43.41601" lon="5.70005">
        <ele>530</ele>
        <time>2012-11-02T09:33:10Z</time>
      </trkpt>
      <trkpt lat="43.416" lon="5.70013">
        <ele>530</ele>
        <time>2012-11-02T09:33:25Z</time>
      </trkpt>
      <trkpt lat="43.41599" lon="5.70019">
        <ele>531</ele>
        <time>2012-11-02T09:33:41Z</time>
      </trkpt>
      <trkpt lat="43.416" lon="5.70024">
        <ele>536</ele>
        <time>2012-11-02T09:33:55Z</time>
      </trkpt>
      <trkpt lat="43.41609" lon="5.70024">
        <ele>539</ele>
        <time>2012-11-02T09:34:10Z</time>
      </trkpt>
      <trkpt lat="43.41618" lon="5.70032">
        <ele>538</ele>
        <time>2012-11-02T09:34:28Z</time>
      </trkpt>
      <trkpt lat="43.41626" lon="5.70033">
        <ele>544</ele>
        <time>2012-11-02T09:34:47Z</time>
      </trkpt>
      <trkpt lat="43.41631" lon="5.70038">
        <ele>546</ele>
        <time>2012-11-02T09:35:02Z</time>
      </trkpt>
      <trkpt lat="43.41634" lon="5.70048">
        <ele>544</ele>
        <time>2012-11-02T09:35:17Z</time>
      </trkpt>
      <trkpt lat="43.41638" lon="5.70051">
        <ele>550</ele>
        <time>2012-11-02T09:35:33Z</time>
      </trkpt>
      <trkpt lat="43.41643" lon="5.70054">
        <ele>548</ele>
        <time>2012-11-02T09:35:50Z</time>
      </trkpt>
      <trkpt lat="43.41651" lon="5.70064">
        <ele>550</ele>
        <time>2012-11-02T09:36:06Z</time>
      </trkpt>
      <trkpt lat="43.41654" lon="5.70067">
        <ele>551</ele>
        <time>2012-11-02T09:36:23Z</time>
      </trkpt>
      <trkpt lat="43.41658" lon="5.70076">
        <ele>554</ele>
        <time>2012-11-02T09:36:38Z</time>
      </trkpt>
      <trkpt lat="43.41661" lon="5.70081">
        <ele>561</ele>
        <time>2012-11-02T09:36:52Z</time>
      </trkpt>
      <trkpt lat="43.41667" lon="5.7009">
        <ele>561</ele>
        <time>2012-11-02T09:37:06Z</time>
      </trkpt>
      <trkpt lat="43.4167" lon="5.70093">
        <ele>563</ele>
        <time>2012-11-02T09:37:21Z</time>
      </trkpt>
      <trkpt lat="43.41673" lon="5.70099">
        <ele>566</ele>
        <time>2012-11-02T09:37:36Z</time>
      </trkpt>
      <trkpt lat="43.41677" lon="5.70103">
        <ele>572</ele>
        <time>2012-11-02T09:37:56Z</time>
      </trkpt>
      <trkpt lat="43.41685" lon="5.70104">
        <ele>575</ele>
        <time>2012-11-02T09:38:15Z</time>
      </trkpt>
      <trkpt lat="43.4169" lon="5.70105">
        <ele>578</ele>
        <time>2012-11-02T09:38:30Z</time>
      </trkpt>
      <trkpt lat="43.41696" lon="5.70109">
        <ele>583</ele>
        <time>2012-11-02T09:38:44Z</time>
      </trkpt>
      <trkpt lat="43.417" lon="5.70116">
        <ele>587</ele>
        <time>2012-11-02T09:38:59Z</time>
      </trkpt>
      <trkpt lat="43.41705" lon="5.70119">
        <ele>589</ele>
        <time>2012-11-02T09:39:13Z</time>
      </trkpt>
      <trkpt lat="43.4171" lon="5.70126">
        <ele>588</ele>
        <time>2012-11-02T09:39:32Z</time>
      </trkpt>
      <trkpt lat="43.41721" lon="5.70135">
        <ele>586</ele>
        <time>2012-11-02T09:39:52Z</time>
      </trkpt>
      <trkpt lat="43.41728" lon="5.70143">
        <ele>582</ele>
        <time>2012-11-02T09:40:07Z</time>
      </trkpt>
      <trkpt lat="43.41735" lon="5.70148">
        <ele>583</ele>
        <time>2012-11-02T09:40:23Z</time>
      </trkpt>
      <trkpt lat="43.41736" lon="5.70148">
        <ele>584</ele>
        <time>2012-11-02T09:40:48Z</time>
      </trkpt>
      <trkpt lat="43.4174" lon="5.70149">
        <ele>586</ele>
        <time>2012-11-02T09:41:05Z</time>
      </trkpt>
      <trkpt lat="43.41747" lon="5.70155">
        <ele>586</ele>
        <time>2012-11-02T09:42:43Z</time>
      </trkpt>
      <trkpt lat="43.41754" lon="5.70156">
        <ele>591</ele>
        <time>2012-11-02T09:43:00Z</time>
      </trkpt>
      <trkpt lat="43.41761" lon="5.70158">
        <ele>597</ele>
        <time>2012-11-02T09:43:15Z</time>
      </trkpt>
      <trkpt lat="43.41771" lon="5.7016">
        <ele>599</ele>
        <time>2012-11-02T09:43:32Z</time>
      </trkpt>
      <trkpt lat="43.41779" lon="5.70163">
        <ele>601</ele>
        <time>2012-11-02T09:43:47Z</time>
      </trkpt>
      <trkpt lat="43.41786" lon="5.70163">
        <ele>607</ele>
        <time>2012-11-02T09:44:02Z</time>
      </trkpt>
      <trkpt lat="43.41797" lon="5.70169">
        <ele>608</ele>
        <time>2012-11-02T09:44:21Z</time>
      </trkpt>
      <trkpt lat="43.41805" lon="5.70181">
        <ele>609</ele>
        <time>2012-11-02T09:44:39Z</time>
      </trkpt>
      <trkpt lat="43.41812" lon="5.70192">
        <ele>611</ele>
        <time>2012-11-02T09:44:55Z</time>
      </trkpt>
      <trkpt lat="43.41817" lon="5.70196">
        <ele>616</ele>
        <time>2012-11-02T09:45:12Z</time>
      </trkpt>
      <trkpt lat="43.41814" lon="5.70194">
        <ele>618</ele>
        <time>2012-11-02T09:45:35Z</time>
      </trkpt>
      <trkpt lat="43.41816" lon="5.70197">
        <ele>617</ele>
        <time>2012-11-02T09:45:51Z</time>
      </trkpt>
      <trkpt lat="43.41817" lon="5.70199">
        <ele>612</ele>
        <time>2012-11-02T09:46:14Z</time>
      </trkpt>
      <trkpt lat="43.41817" lon="5.70199">
        <ele>615</ele>
        <time>2012-11-02T09:46:30Z</time>
      </trkpt>
      <trkpt lat="43.41821" lon="5.70202">
        <ele>612</ele>
        <time>2012-11-02T09:48:45Z</time>
      </trkpt>
      <trkpt lat="43.4182" lon="5.70201">
        <ele>615</ele>
        <time>2012-11-02T09:49:55Z</time>
      </trkpt>
      <trkpt lat="43.41826" lon="5.70197">
        <ele>618</ele>
        <time>2012-11-02T09:50:11Z</time>
      </trkpt>
      <trkpt lat="43.41832" lon="5.70194">
        <ele>622</ele>
        <time>2012-11-02T09:50:29Z</time>
      </trkpt>
      <trkpt lat="43.41838" lon="5.70198">
        <ele>615</ele>
        <time>2012-11-02T09:51:13Z</time>
      </trkpt>
      <trkpt lat="43.41829" lon="5.70202">
        <ele>615</ele>
        <time>2012-11-02T09:51:31Z</time>
      </trkpt>
      <trkpt lat="43.41823" lon="5.70202">
        <ele>613</ele>
        <time>2012-11-02T09:51:50Z</time>
      </trkpt>
      <trkpt lat="43.4182" lon="5.70203">
        <ele>613</ele>
        <time>2012-11-02T09:52:20Z</time>
      </trkpt>
      <trkpt lat="43.41818" lon="5.70202">
        <ele>615</ele>
        <time>2012-11-02T09:52:46Z</time>
      </trkpt>
      <trkpt lat="43.41818" lon="5.70207">
        <ele>615</ele>
        <time>2012-11-02T09:53:15Z</time>
      </trkpt>
      <trkpt lat="43.41818" lon="5.70218">
        <ele>616</ele>
        <time>2012-11-02T09:53:28Z</time>
      </trkpt>
      <trkpt lat="43.41814" lon="5.70233">
        <ele>619</ele>
        <time>2012-11-02T09:53:47Z</time>
      </trkpt>
      <trkpt lat="43.41806" lon="5.70241">
        <ele>622</ele>
        <time>2012-11-02T09:54:02Z</time>
      </trkpt>
      <trkpt lat="43.41801" lon="5.70244">
        <ele>625</ele>
        <time>2012-11-02T09:54:14Z</time>
      </trkpt>
      <trkpt lat="43.41796" lon="5.70252">
        <ele>627</ele>
        <time>2012-11-02T09:54:27Z</time>
      </trkpt>
      <trkpt lat="43.41791" lon="5.70266">
        <ele>625</ele>
        <time>2012-11-02T09:54:44Z</time>
      </trkpt>
      <trkpt lat="43.41786" lon="5.7028">
        <ele>628</ele>
        <time>2012-11-02T09:55:02Z</time>
      </trkpt>
      <trkpt lat="43.41782" lon="5.70287">
        <ele>630</ele>
        <time>2012-11-02T09:55:16Z</time>
      </trkpt>
      <trkpt lat="43.41778" lon="5.70295">
        <ele>635</ele>
        <time>2012-11-02T09:55:33Z</time>
      </trkpt>
      <trkpt lat="43.41776" lon="5.70306">
        <ele>634</ele>
        <time>2012-11-02T09:55:49Z</time>
      </trkpt>
      <trkpt lat="43.41768" lon="5.70312">
        <ele>636</ele>
        <time>2012-11-02T09:56:04Z</time>
      </trkpt>
      <trkpt lat="43.4176" lon="5.7032">
        <ele>637</ele>
        <time>2012-11-02T09:56:17Z</time>
      </trkpt>
      <trkpt lat="43.41756" lon="5.70327">
        <ele>637</ele>
        <time>2012-11-02T09:56:29Z</time>
      </trkpt>
      <trkpt lat="43.41751" lon="5.70337">
        <ele>636</ele>
        <time>2012-11-02T09:56:44Z</time>
      </trkpt>
      <trkpt lat="43.41745" lon="5.70346">
        <ele>642</ele>
        <time>2012-11-02T09:56:59Z</time>
      </trkpt>
      <trkpt lat="43.41742" lon="5.70358">
        <ele>642</ele>
        <time>2012-11-02T09:57:13Z</time>
      </trkpt>
      <trkpt lat="43.4174" lon="5.70374">
        <ele>646</ele>
        <time>2012-11-02T09:57:31Z</time>
      </trkpt>
      <trkpt lat="43.4174" lon="5.70398">
        <ele>646</ele>
        <time>2012-11-02T09:57:51Z</time>
      </trkpt>
      <trkpt lat="43.41742" lon="5.70409">
        <ele>644</ele>
        <time>2012-11-02T09:58:06Z</time>
      </trkpt>
      <trkpt lat="43.41741" lon="5.70425">
        <ele>647</ele>
        <time>2012-11-02T09:58:23Z</time>
      </trkpt>
      <trkpt lat="43.41739" lon="5.70433">
        <ele>649</ele>
        <time>2012-11-02T09:58:41Z</time>
      </trkpt>
      <trkpt lat="43.41737" lon="5.70434">
        <ele>652</ele>
        <time>2012-11-02T09:59:00Z</time>
      </trkpt>
      <trkpt lat="43.41724" lon="5.70434">
        <ele>671</ele>
        <time>2012-11-02T09:59:57Z</time>
      </trkpt>
      <trkpt lat="43.41735" lon="5.70432">
        <ele>654</ele>
        <time>2012-11-02T10:02:15Z</time>
      </trkpt>
      <trkpt lat="43.41739" lon="5.70436">
        <ele>653</ele>
        <time>2012-11-02T10:06:24Z</time>
      </trkpt>
      <trkpt lat="43.41735" lon="5.70435">
        <ele>656</ele>
        <time>2012-11-02T10:07:30Z</time>
      </trkpt>
      <trkpt lat="43.41736" lon="5.70433">
        <ele>653</ele>
        <time>2012-11-02T10:08:22Z</time>
      </trkpt>
      <trkpt lat="43.41736" lon="5.70431">
        <ele>654</ele>
        <time>2012-11-02T10:08:42Z</time>
      </trkpt>
      <trkpt lat="43.41737" lon="5.70431">
        <ele>652</ele>
        <time>2012-11-02T10:09:31Z</time>
      </trkpt>
      <trkpt lat="43.41738" lon="5.70433">
        <ele>650</ele>
        <time>2012-11-02T10:09:48Z</time>
      </trkpt>
      <trkpt lat="43.41741" lon="5.70436">
        <ele>651</ele>
        <time>2012-11-02T10:10:21Z</time>
      </trkpt>
      <trkpt lat="43.41742" lon="5.70445">
        <ele>651</ele>
        <time>2012-11-02T10:10:37Z</time>
      </trkpt>
      <trkpt lat="43.41742" lon="5.70457">
        <ele>648</ele>
        <time>2012-11-02T10:10:54Z</time>
      </trkpt>
      <trkpt lat="43.41743" lon="5.70465">
        <ele>644</ele>
        <time>2012-11-02T10:11:13Z</time>
      </trkpt>
      <trkpt lat="43.41743" lon="5.70468">
        <ele>644</ele>
        <time>2012-11-02T10:11:40Z</time>
      </trkpt>
      <trkpt lat="43.41748" lon="5.70477">
        <ele>643</ele>
        <time>2012-11-02T10:12:04Z</time>
      </trkpt>
      <trkpt lat="43.41756" lon="5.70486">
        <ele>642</ele>
        <time>2012-11-02T10:12:20Z</time>
      </trkpt>
      <trkpt lat="43.41763" lon="5.70496">
        <ele>641</ele>
        <time>2012-11-02T10:12:38Z</time>
      </trkpt>
      <trkpt lat="43.41773" lon="5.70506">
        <ele>637</ele>
        <time>2012-11-02T10:12:56Z</time>
      </trkpt>
      <trkpt lat="43.41785" lon="5.70505">
        <ele>641</ele>
        <time>2012-11-02T10:13:13Z</time>
      </trkpt>
      <trkpt lat="43.41788" lon="5.70504">
        <ele>641</ele>
        <time>2012-11-02T10:13:16Z</time>
      </trkpt>
      <trkpt lat="43.41804" lon="5.70494">
        <ele>643</ele>
        <time>2012-11-02T10:13:33Z</time>
      </trkpt>
      <trkpt lat="43.41808" lon="5.70494">
        <ele>643</ele>
        <time>2012-11-02T10:13:39Z</time>
      </trkpt>
      <trkpt lat="43.41816" lon="5.70482">
        <ele>641</ele>
        <time>2012-11-02T10:13:52Z</time>
      </trkpt>
      <trkpt lat="43.41825" lon="5.70469">
        <ele>637</ele>
        <time>2012-11-02T10:14:07Z</time>
      </trkpt>
      <trkpt lat="43.41827" lon="5.70467">
        <ele>637</ele>
        <time>2012-11-02T10:14:10Z</time>
      </trkpt>
      <trkpt lat="43.41835" lon="5.70456">
        <ele>634</ele>
        <time>2012-11-02T10:14:24Z</time>
      </trkpt>
      <trkpt lat="43.41841" lon="5.70456">
        <ele>633</ele>
        <time>2012-11-02T10:14:31Z</time>
      </trkpt>
      <trkpt lat="43.41854" lon="5.7046">
        <ele>630</ele>
        <time>2012-11-02T10:14:46Z</time>
      </trkpt>
      <trkpt lat="43.41864" lon="5.70466">
        <ele>628</ele>
        <time>2012-11-02T10:14:57Z</time>
      </trkpt>
      <trkpt lat="43.41877" lon="5.7047">
        <ele>629</ele>
        <time>2012-11-02T10:15:12Z</time>
      </trkpt>
      <trkpt lat="43.41887" lon="5.70475">
        <ele>631</ele>
        <time>2012-11-02T10:15:28Z</time>
      </trkpt>
      <trkpt lat="43.419" lon="5.70486">
        <ele>631</ele>
        <time>2012-11-02T10:15:46Z</time>
      </trkpt>
      <trkpt lat="43.41904" lon="5.70499">
        <ele>630</ele>
        <time>2012-11-02T10:15:56Z</time>
      </trkpt>
      <trkpt lat="43.41913" lon="5.70514">
        <ele>631</ele>
        <time>2012-11-02T10:16:12Z</time>
      </trkpt>
      <trkpt lat="43.41924" lon="5.70521">
        <ele>635</ele>
        <time>2012-11-02T10:16:29Z</time>
      </trkpt>
      <trkpt lat="43.41932" lon="5.70525">
        <ele>638</ele>
        <time>2012-11-02T10:16:46Z</time>
      </trkpt>
      <trkpt lat="43.41943" lon="5.70539">
        <ele>640</ele>
        <time>2012-11-02T10:17:04Z</time>
      </trkpt>
      <trkpt lat="43.41944" lon="5.70541">
        <ele>641</ele>
        <time>2012-11-02T10:17:25Z</time>
      </trkpt>
      <trkpt lat="43.41949" lon="5.70543">
        <ele>637</ele>
        <time>2012-11-02T10:17:47Z</time>
      </trkpt>
      <trkpt lat="43.41945" lon="5.70541">
        <ele>639</ele>
        <time>2012-11-02T10:19:05Z</time>
      </trkpt>
      <trkpt lat="43.41947" lon="5.70555">
        <ele>639</ele>
        <time>2012-11-02T10:19:27Z</time>
      </trkpt>
      <trkpt lat="43.41947" lon="5.70563">
        <ele>639</ele>
        <time>2012-11-02T10:19:32Z</time>
      </trkpt>
      <trkpt lat="43.4195" lon="5.70575">
        <ele>640</ele>
        <time>2012-11-02T10:19:40Z</time>
      </trkpt>
      <trkpt lat="43.41951" lon="5.70601">
        <ele>641</ele>
        <time>2012-11-02T10:19:58Z</time>
      </trkpt>
      <trkpt lat="43.41958" lon="5.70619">
        <ele>640</ele>
        <time>2012-11-02T10:20:13Z</time>
      </trkpt>
      <trkpt lat="43.41962" lon="5.7063">
        <ele>638</ele>
        <time>2012-11-02T10:20:20Z</time>
      </trkpt>
      <trkpt lat="43.4197" lon="5.70651">
        <ele>638</ele>
        <time>2012-11-02T10:20:38Z</time>
      </trkpt>
      <trkpt lat="43.4197" lon="5.70652">
        <ele>638</ele>
        <time>2012-11-02T10:20:39Z</time>
      </trkpt>
      <trkpt lat="43.41977" lon="5.70668">
        <ele>637</ele>
        <time>2012-11-02T10:20:54Z</time>
      </trkpt>
      <trkpt lat="43.41983" lon="5.70679">
        <ele>637</ele>
        <time>2012-11-02T10:21:05Z</time>
      </trkpt>
      <trkpt lat="43.41991" lon="5.70695">
        <ele>637</ele>
        <time>2012-11-02T10:21:20Z</time>
      </trkpt>
      <trkpt lat="43.41997" lon="5.70717">
        <ele>636</ele>
        <time>2012-11-02T10:21:38Z</time>
      </trkpt>
      <trkpt lat="43.42003" lon="5.70724">
        <ele>634</ele>
        <time>2012-11-02T10:21:48Z</time>
      </trkpt>
      <trkpt lat="43.42005" lon="5.70737">
        <ele>633</ele>
        <time>2012-11-02T10:22:01Z</time>
      </trkpt>
      <trkpt lat="43.42015" lon="5.70756">
        <ele>635</ele>
        <time>2012-11-02T10:22:19Z</time>
      </trkpt>
      <trkpt lat="43.42024" lon="5.70772">
        <ele>637</ele>
        <time>2012-11-02T10:22:34Z</time>
      </trkpt>
      <trkpt lat="43.42031" lon="5.70792">
        <ele>637</ele>
        <time>2012-11-02T10:22:51Z</time>
      </trkpt>
      <trkpt lat="43.42039" lon="5.70814">
        <ele>636</ele>
        <time>2012-11-02T10:23:09Z</time>
      </trkpt>
      <trkpt lat="43.42046" lon="5.70842">
        <ele>638</ele>
        <time>2012-11-02T10:23:31Z</time>
      </trkpt>
      <trkpt lat="43.42053" lon="5.70864">
        <ele>638</ele>
        <time>2012-11-02T10:23:49Z</time>
      </trkpt>
      <trkpt lat="43.42063" lon="5.70885">
        <ele>635</ele>
        <time>2012-11-02T10:24:08Z</time>
      </trkpt>
      <trkpt lat="43.42075" lon="5.70904">
        <ele>634</ele>
        <time>2012-11-02T10:24:27Z</time>
      </trkpt>
      <trkpt lat="43.42089" lon="5.70921">
        <ele>636</ele>
        <time>2012-11-02T10:24:46Z</time>
      </trkpt>
      <trkpt lat="43.42107" lon="5.70941">
        <ele>634</ele>
        <time>2012-11-02T10:25:08Z</time>
      </trkpt>
      <trkpt lat="43.42116" lon="5.7095">
        <ele>634</ele>
        <time>2012-11-02T10:25:19Z</time>
      </trkpt>
      <trkpt lat="43.42131" lon="5.70966">
        <ele>635</ele>
        <time>2012-11-02T10:25:37Z</time>
      </trkpt>
      <trkpt lat="43.42143" lon="5.70984">
        <ele>632</ele>
        <time>2012-11-02T10:25:55Z</time>
      </trkpt>
      <trkpt lat="43.42153" lon="5.71004">
        <ele>631</ele>
        <time>2012-11-02T10:26:12Z</time>
      </trkpt>
      <trkpt lat="43.42165" lon="5.71025">
        <ele>630</ele>
        <time>2012-11-02T10:26:29Z</time>
      </trkpt>
      <trkpt lat="43.42178" lon="5.71043">
        <ele>629</ele>
        <time>2012-11-02T10:26:47Z</time>
      </trkpt>
      <trkpt lat="43.42196" lon="5.71067">
        <ele>628</ele>
        <time>2012-11-02T10:27:10Z</time>
      </trkpt>
      <trkpt lat="43.42209" lon="5.71089">
        <ele>628</ele>
        <time>2012-11-02T10:27:30Z</time>
      </trkpt>
      <trkpt lat="43.42221" lon="5.71108">
        <ele>626</ele>
        <time>2012-11-02T10:27:47Z</time>
      </trkpt>
      <trkpt lat="43.42236" lon="5.71132">
        <ele>623</ele>
        <time>2012-11-02T10:28:07Z</time>
      </trkpt>
      <trkpt lat="43.42246" lon="5.71155">
        <ele>622</ele>
        <time>2012-11-02T10:28:26Z</time>
      </trkpt>
      <trkpt lat="43.42255" lon="5.71171">
        <ele>621</ele>
        <time>2012-11-02T10:28:41Z</time>
      </trkpt>
      <trkpt lat="43.42258" lon="5.71179">
        <ele>621</ele>
        <time>2012-11-02T10:28:47Z</time>
      </trkpt>
      <trkpt lat="43.42262" lon="5.71186">
        <ele>620</ele>
        <time>2012-11-02T10:28:54Z</time>
      </trkpt>
      <trkpt lat="43.42263" lon="5.71191">
        <ele>620</ele>
        <time>2012-11-02T10:28:57Z</time>
      </trkpt>
      <trkpt lat="43.42274" lon="5.71211">
        <ele>619</ele>
        <time>2012-11-02T10:29:14Z</time>
      </trkpt>
      <trkpt lat="43.42282" lon="5.71232">
        <ele>616</ele>
        <time>2012-11-02T10:29:32Z</time>
      </trkpt>
      <trkpt lat="43.42283" lon="5.71264">
        <ele>615</ele>
        <time>2012-11-02T10:29:52Z</time>
      </trkpt>
      <trkpt lat="43.4228" lon="5.71292">
        <ele>614</ele>
        <time>2012-11-02T10:30:15Z</time>
      </trkpt>
      <trkpt lat="43.42277" lon="5.71297">
        <ele>615</ele>
        <time>2012-11-02T10:30:29Z</time>
      </trkpt>
      <trkpt lat="43.42278" lon="5.71315">
        <ele>616</ele>
        <time>2012-11-02T10:30:44Z</time>
      </trkpt>
      <trkpt lat="43.42283" lon="5.71339">
        <ele>614</ele>
        <time>2012-11-02T10:31:03Z</time>
      </trkpt>
      <trkpt lat="43.42287" lon="5.71361">
        <ele>615</ele>
        <time>2012-11-02T10:31:21Z</time>
      </trkpt>
      <trkpt lat="43.42294" lon="5.71384">
        <ele>618</ele>
        <time>2012-11-02T10:31:40Z</time>
      </trkpt>
      <trkpt lat="43.42304" lon="5.71405">
        <ele>618</ele>
        <time>2012-11-02T10:31:57Z</time>
      </trkpt>
      <trkpt lat="43.42314" lon="5.71424">
        <ele>620</ele>
        <time>2012-11-02T10:32:14Z</time>
      </trkpt>
      <trkpt lat="43.42324" lon="5.7144">
        <ele>618</ele>
        <time>2012-11-02T10:32:30Z</time>
      </trkpt>
      <trkpt lat="43.42335" lon="5.71457">
        <ele>615</ele>
        <time>2012-11-02T10:32:47Z</time>
      </trkpt>
      <trkpt lat="43.4235" lon="5.71475">
        <ele>614</ele>
        <time>2012-11-02T10:33:06Z</time>
      </trkpt>
      <trkpt lat="43.4236" lon="5.7149">
        <ele>616</ele>
        <time>2012-11-02T10:33:21Z</time>
      </trkpt>
      <trkpt lat="43.42365" lon="5.71503">
        <ele>618</ele>
        <time>2012-11-02T10:33:33Z</time>
      </trkpt>
      <trkpt lat="43.42371" lon="5.71521">
        <ele>621</ele>
        <time>2012-11-02T10:33:49Z</time>
      </trkpt>
      <trkpt lat="43.42378" lon="5.71545">
        <ele>623</ele>
        <time>2012-11-02T10:34:09Z</time>
      </trkpt>
      <trkpt lat="43.42384" lon="5.71557">
        <ele>624</ele>
        <time>2012-11-02T10:34:19Z</time>
      </trkpt>
      <trkpt lat="43.42384" lon="5.71567">
        <ele>622</ele>
        <time>2012-11-02T10:34:27Z</time>
      </trkpt>
      <trkpt lat="43.42395" lon="5.71588">
        <ele>622</ele>
        <time>2012-11-02T10:34:45Z</time>
      </trkpt>
      <trkpt lat="43.42402" lon="5.71609">
        <ele>625</ele>
        <time>2012-11-02T10:35:02Z</time>
      </trkpt>
      <trkpt lat="43.4241" lon="5.71633">
        <ele>625</ele>
        <time>2012-11-02T10:35:21Z</time>
      </trkpt>
      <trkpt lat="43.4242" lon="5.71654">
        <ele>627</ele>
        <time>2012-11-02T10:35:40Z</time>
      </trkpt>
      <trkpt lat="43.42428" lon="5.71676">
        <ele>628</ele>
        <time>2012-11-02T10:35:59Z</time>
      </trkpt>
      <trkpt lat="43.42438" lon="5.71699">
        <ele>628</ele>
        <time>2012-11-02T10:36:18Z</time>
      </trkpt>
      <trkpt lat="43.42448" lon="5.71717">
        <ele>628</ele>
        <time>2012-11-02T10:36:34Z</time>
      </trkpt>
      <trkpt lat="43.42457" lon="5.71731">
        <ele>625</ele>
        <time>2012-11-02T10:36:47Z</time>
      </trkpt>
      <trkpt lat="43.42468" lon="5.71747">
        <ele>626</ele>
        <time>2012-11-02T10:37:04Z</time>
      </trkpt>
      <trkpt lat="43.42483" lon="5.71764">
        <ele>629</ele>
        <time>2012-11-02T10:37:22Z</time>
      </trkpt>
      <trkpt lat="43.42497" lon="5.71781">
        <ele>627</ele>
        <time>2012-11-02T10:37:40Z</time>
      </trkpt>
      <trkpt lat="43.42511" lon="5.71803">
        <ele>625</ele>
        <time>2012-11-02T10:37:59Z</time>
      </trkpt>
      <trkpt lat="43.42519" lon="5.71823">
        <ele>625</ele>
        <time>2012-11-02T10:38:15Z</time>
      </trkpt>
      <trkpt lat="43.42527" lon="5.71844">
        <ele>626</ele>
        <time>2012-11-02T10:38:32Z</time>
      </trkpt>
      <trkpt lat="43.42536" lon="5.71868">
        <ele>625</ele>
        <time>2012-11-02T10:38:51Z</time>
      </trkpt>
      <trkpt lat="43.42542" lon="5.71894">
        <ele>624</ele>
        <time>2012-11-02T10:39:11Z</time>
      </trkpt>
      <trkpt lat="43.42544" lon="5.71921">
        <ele>624</ele>
        <time>2012-11-02T10:39:31Z</time>
      </trkpt>
      <trkpt lat="43.42546" lon="5.71949">
        <ele>622</ele>
        <time>2012-11-02T10:39:50Z</time>
      </trkpt>
      <trkpt lat="43.42545" lon="5.71978">
        <ele>621</ele>
        <time>2012-11-02T10:40:10Z</time>
      </trkpt>
      <trkpt lat="43.42543" lon="5.72003">
        <ele>622</ele>
        <time>2012-11-02T10:40:28Z</time>
      </trkpt>
      <trkpt lat="43.4254" lon="5.72028">
        <ele>622</ele>
        <time>2012-11-02T10:40:46Z</time>
      </trkpt>
      <trkpt lat="43.42541" lon="5.72053">
        <ele>623</ele>
        <time>2012-11-02T10:41:03Z</time>
      </trkpt>
      <trkpt lat="43.42543" lon="5.72066">
        <ele>625</ele>
        <time>2012-11-02T10:41:13Z</time>
      </trkpt>
      <trkpt lat="43.42544" lon="5.7207">
        <ele>625</ele>
        <time>2012-11-02T10:41:17Z</time>
      </trkpt>
      <trkpt lat="43.4255" lon="5.72099">
        <ele>626</ele>
        <time>2012-11-02T10:41:38Z</time>
      </trkpt>
      <trkpt lat="43.42553" lon="5.72127">
        <ele>625</ele>
        <time>2012-11-02T10:41:57Z</time>
      </trkpt>
      <trkpt lat="43.42556" lon="5.72154">
        <ele>625</ele>
        <time>2012-11-02T10:42:17Z</time>
      </trkpt>
      <trkpt lat="43.42553" lon="5.72174">
        <ele>625</ele>
        <time>2012-11-02T10:42:33Z</time>
      </trkpt>
      <trkpt lat="43.42547" lon="5.72198">
        <ele>625</ele>
        <time>2012-11-02T10:42:52Z</time>
      </trkpt>
      <trkpt lat="43.42539" lon="5.72227">
        <ele>626</ele>
        <time>2012-11-02T10:43:13Z</time>
      </trkpt>
      <trkpt lat="43.42542" lon="5.72248">
        <ele>629</ele>
        <time>2012-11-02T10:43:28Z</time>
      </trkpt>
      <trkpt lat="43.42548" lon="5.72268">
        <ele>631</ele>
        <time>2012-11-02T10:43:45Z</time>
      </trkpt>
      <trkpt lat="43.42553" lon="5.72288">
        <ele>631</ele>
        <time>2012-11-02T10:43:59Z</time>
      </trkpt>
      <trkpt lat="43.4256" lon="5.72313">
        <ele>630</ele>
        <time>2012-11-02T10:44:17Z</time>
      </trkpt>
      <trkpt lat="43.42567" lon="5.7234">
        <ele>629</ele>
        <time>2012-11-02T10:44:37Z</time>
      </trkpt>
      <trkpt lat="43.42575" lon="5.72362">
        <ele>631</ele>
        <time>2012-11-02T10:44:55Z</time>
      </trkpt>
      <trkpt lat="43.42575" lon="5.72364">
        <ele>632</ele>
        <time>2012-11-02T10:44:56Z</time>
      </trkpt>
      <trkpt lat="43.42581" lon="5.72377">
        <ele>632</ele>
        <time>2012-11-02T10:45:06Z</time>
      </trkpt>
      <trkpt lat="43.42587" lon="5.72398">
        <ele>630</ele>
        <time>2012-11-02T10:45:21Z</time>
      </trkpt>
      <trkpt lat="43.42593" lon="5.72418">
        <ele>631</ele>
        <time>2012-11-02T10:45:37Z</time>
      </trkpt>
      <trkpt lat="43.42597" lon="5.72437">
        <ele>632</ele>
        <time>2012-11-02T10:45:54Z</time>
      </trkpt>
      <trkpt lat="43.42599" lon="5.7246">
        <ele>631</ele>
        <time>2012-11-02T10:46:12Z</time>
      </trkpt>
      <trkpt lat="43.42598" lon="5.72485">
        <ele>630</ele>
        <time>2012-11-02T10:46:32Z</time>
      </trkpt>
      <trkpt lat="43.42595" lon="5.72517">
        <ele>628</ele>
        <time>2012-11-02T10:46:55Z</time>
      </trkpt>
      <trkpt lat="43.42595" lon="5.7255">
        <ele>627</ele>
        <time>2012-11-02T10:47:19Z</time>
      </trkpt>
      <trkpt lat="43.42598" lon="5.72575">
        <ele>626</ele>
        <time>2012-11-02T10:47:39Z</time>
      </trkpt>
      <trkpt lat="43.426" lon="5.72579">
        <ele>627</ele>
        <time>2012-11-02T10:47:43Z</time>
      </trkpt>
      <trkpt lat="43.42603" lon="5.72601">
        <ele>625</ele>
        <time>2012-11-02T10:48:01Z</time>
      </trkpt>
      <trkpt lat="43.42607" lon="5.72622">
        <ele>625</ele>
        <time>2012-11-02T10:48:20Z</time>
      </trkpt>
      <trkpt lat="43.4261" lon="5.72635">
        <ele>624</ele>
        <time>2012-11-02T10:48:35Z</time>
      </trkpt>
      <trkpt lat="43.42615" lon="5.72663">
        <ele>622</ele>
        <time>2012-11-02T10:48:55Z</time>
      </trkpt>
      <trkpt lat="43.42621" lon="5.72683">
        <ele>621</ele>
        <time>2012-11-02T10:49:12Z</time>
      </trkpt>
      <trkpt lat="43.42627" lon="5.72704">
        <ele>619</ele>
        <time>2012-11-02T10:49:30Z</time>
      </trkpt>
      <trkpt lat="43.4263" lon="5.72726">
        <ele>618</ele>
        <time>2012-11-02T10:49:49Z</time>
      </trkpt>
      <trkpt lat="43.42633" lon="5.72747">
        <ele>615</ele>
        <time>2012-11-02T10:50:07Z</time>
      </trkpt>
      <trkpt lat="43.42634" lon="5.72767">
        <ele>613</ele>
        <time>2012-11-02T10:50:26Z</time>
      </trkpt>
      <trkpt lat="43.42635" lon="5.72783">
        <ele>612</ele>
        <time>2012-11-02T10:50:42Z</time>
      </trkpt>
      <trkpt lat="43.42627" lon="5.72804">
        <ele>610</ele>
        <time>2012-11-02T10:51:01Z</time>
      </trkpt>
      <trkpt lat="43.42621" lon="5.72811">
        <ele>612</ele>
        <time>2012-11-02T10:51:11Z</time>
      </trkpt>
      <trkpt lat="43.42603" lon="5.72825">
        <ele>612</ele>
        <time>2012-11-02T10:51:34Z</time>
      </trkpt>
      <trkpt lat="43.42588" lon="5.72838">
        <ele>612</ele>
        <time>2012-11-02T10:51:55Z</time>
      </trkpt>
      <trkpt lat="43.42576" lon="5.72851">
        <ele>609</ele>
        <time>2012-11-02T10:52:12Z</time>
      </trkpt>
      <trkpt lat="43.4256" lon="5.72866">
        <ele>607</ele>
        <time>2012-11-02T10:52:36Z</time>
      </trkpt>
      <trkpt lat="43.42546" lon="5.72877">
        <ele>605</ele>
        <time>2012-11-02T10:52:56Z</time>
      </trkpt>
      <trkpt lat="43.42529" lon="5.72887">
        <ele>605</ele>
        <time>2012-11-02T10:53:16Z</time>
      </trkpt>
      <trkpt lat="43.42515" lon="5.72904">
        <ele>606</ele>
        <time>2012-11-02T10:53:38Z</time>
      </trkpt>
      <trkpt lat="43.42501" lon="5.72917">
        <ele>601</ele>
        <time>2012-11-02T10:53:57Z</time>
      </trkpt>
      <trkpt lat="43.42492" lon="5.72922">
        <ele>602</ele>
        <time>2012-11-02T10:54:15Z</time>
      </trkpt>
      <trkpt lat="43.42485" lon="5.7293">
        <ele>601</ele>
        <time>2012-11-02T10:54:29Z</time>
      </trkpt>
      <trkpt lat="43.42472" lon="5.72937">
        <ele>600</ele>
        <time>2012-11-02T10:54:52Z</time>
      </trkpt>
      <trkpt lat="43.42472" lon="5.72941">
        <ele>594</ele>
        <time>2012-11-02T10:55:16Z</time>
      </trkpt>
      <trkpt lat="43.42471" lon="5.7294">
        <ele>597</ele>
        <time>2012-11-02T10:55:35Z</time>
      </trkpt>
      <trkpt lat="43.42471" lon="5.72942">
        <ele>588</ele>
        <time>2012-11-02T10:55:58Z</time>
      </trkpt>
      <trkpt lat="43.4246" lon="5.72944">
        <ele>592</ele>
        <time>2012-11-02T10:56:13Z</time>
      </trkpt>
      <trkpt lat="43.42446" lon="5.72951">
        <ele>592</ele>
        <time>2012-11-02T10:56:31Z</time>
      </trkpt>
      <trkpt lat="43.42431" lon="5.72952">
        <ele>592</ele>
        <time>2012-11-02T10:56:51Z</time>
      </trkpt>
      <trkpt lat="43.42416" lon="5.72961">
        <ele>591</ele>
        <time>2012-11-02T10:57:10Z</time>
      </trkpt>
      <trkpt lat="43.42401" lon="5.72978">
        <ele>589</ele>
        <time>2012-11-02T10:57:27Z</time>
      </trkpt>
      <trkpt lat="43.42389" lon="5.73003">
        <ele>586</ele>
        <time>2012-11-02T10:57:48Z</time>
      </trkpt>
      <trkpt lat="43.42379" lon="5.73012">
        <ele>583</ele>
        <time>2012-11-02T10:58:01Z</time>
      </trkpt>
      <trkpt lat="43.42363" lon="5.73027">
        <ele>584</ele>
        <time>2012-11-02T10:58:20Z</time>
      </trkpt>
      <trkpt lat="43.42348" lon="5.73035">
        <ele>583</ele>
        <time>2012-11-02T10:58:34Z</time>
      </trkpt>
      <trkpt lat="43.42329" lon="5.73043">
        <ele>586</ele>
        <time>2012-11-02T10:58:54Z</time>
      </trkpt>
      <trkpt lat="43.42313" lon="5.73046">
        <ele>587</ele>
        <time>2012-11-02T10:59:10Z</time>
      </trkpt>
      <trkpt lat="43.42298" lon="5.73044">
        <ele>589</ele>
        <time>2012-11-02T10:59:26Z</time>
      </trkpt>
      <trkpt lat="43.42283" lon="5.73041">
        <ele>590</ele>
        <time>2012-11-02T10:59:42Z</time>
      </trkpt>
      <trkpt lat="43.42266" lon="5.73041">
        <ele>594</ele>
        <time>2012-11-02T11:00:02Z</time>
      </trkpt>
      <trkpt lat="43.42255" lon="5.73044">
        <ele>596</ele>
        <time>2012-11-02T11:00:18Z</time>
      </trkpt>
      <trkpt lat="43.42238" lon="5.73046">
        <ele>600</ele>
        <time>2012-11-02T11:00:38Z</time>
      </trkpt>
      <trkpt lat="43.42237" lon="5.73046">
        <ele>600</ele>
        <time>2012-11-02T11:00:39Z</time>
      </trkpt>
      <trkpt lat="43.4222" lon="5.73057">
        <ele>601</ele>
        <time>2012-11-02T11:00:59Z</time>
      </trkpt>
      <trkpt lat="43.42204" lon="5.73069">
        <ele>603</ele>
        <time>2012-11-02T11:01:19Z</time>
      </trkpt>
      <trkpt lat="43.4219" lon="5.73078">
        <ele>604</ele>
        <time>2012-11-02T11:01:38Z</time>
      </trkpt>
      <trkpt lat="43.42172" lon="5.73084">
        <ele>606</ele>
        <time>2012-11-02T11:01:59Z</time>
      </trkpt>
      <trkpt lat="43.42155" lon="5.73094">
        <ele>608</ele>
        <time>2012-11-02T11:02:22Z</time>
      </trkpt>
      <trkpt lat="43.4214" lon="5.73091">
        <ele>607</ele>
        <time>2012-11-02T11:02:42Z</time>
      </trkpt>
      <trkpt lat="43.42129" lon="5.73084">
        <ele>613</ele>
        <time>2012-11-02T11:03:00Z</time>
      </trkpt>
      <trkpt lat="43.42115" lon="5.73077">
        <ele>618</ele>
        <time>2012-11-02T11:03:19Z</time>
      </trkpt>
      <trkpt lat="43.42109" lon="5.73072">
        <ele>614</ele>
        <time>2012-11-02T11:03:30Z</time>
      </trkpt>
      <trkpt lat="43.42095" lon="5.73056">
        <ele>617</ele>
        <time>2012-11-02T11:03:50Z</time>
      </trkpt>
      <trkpt lat="43.42082" lon="5.73041">
        <ele>619</ele>
        <time>2012-11-02T11:04:11Z</time>
      </trkpt>
      <trkpt lat="43.42078" lon="5.73042">
        <ele>619</ele>
        <time>2012-11-02T11:04:30Z</time>
      </trkpt>
      <trkpt lat="43.42073" lon="5.7305">
        <ele>619</ele>
        <time>2012-11-02T11:05:00Z</time>
      </trkpt>
      <trkpt lat="43.42069" lon="5.73059">
        <ele>614</ele>
        <time>2012-11-02T11:05:18Z</time>
      </trkpt>
      <trkpt lat="43.42064" lon="5.73068">
        <ele>613</ele>
        <time>2012-11-02T11:05:35Z</time>
      </trkpt>
      <trkpt lat="43.42056" lon="5.73072">
        <ele>612</ele>
        <time>2012-11-02T11:05:52Z</time>
      </trkpt>
      <trkpt lat="43.42047" lon="5.73076">
        <ele>609</ele>
        <time>2012-11-02T11:06:10Z</time>
      </trkpt>
      <trkpt lat="43.42042" lon="5.73079">
        <ele>607</ele>
        <time>2012-11-02T11:06:25Z</time>
      </trkpt>
      <trkpt lat="43.42034" lon="5.73079">
        <ele>609</ele>
        <time>2012-11-02T11:06:38Z</time>
      </trkpt>
      <trkpt lat="43.42025" lon="5.73079">
        <ele>601</ele>
        <time>2012-11-02T11:06:56Z</time>
      </trkpt>
      <trkpt lat="43.42024" lon="5.73079">
        <ele>600</ele>
        <time>2012-11-02T11:06:58Z</time>
      </trkpt>
      <trkpt lat="43.42017" lon="5.73078">
        <ele>597</ele>
        <time>2012-11-02T11:07:06Z</time>
      </trkpt>
      <trkpt lat="43.4201" lon="5.73078">
        <ele>597</ele>
        <time>2012-11-02T11:07:13Z</time>
      </trkpt>
      <trkpt lat="43.41997" lon="5.73091">
        <ele>600</ele>
        <time>2012-11-02T11:07:33Z</time>
      </trkpt>
      <trkpt lat="43.41981" lon="5.7309">
        <ele>608</ele>
        <time>2012-11-02T11:07:52Z</time>
      </trkpt>
      <trkpt lat="43.41975" lon="5.73088">
        <ele>607</ele>
        <time>2012-11-02T11:07:59Z</time>
      </trkpt>
      <trkpt lat="43.41954" lon="5.73075">
        <ele>612</ele>
        <time>2012-11-02T11:08:21Z</time>
      </trkpt>
      <trkpt lat="43.41939" lon="5.73064">
        <ele>610</ele>
        <time>2012-11-02T11:08:40Z</time>
      </trkpt>
      <trkpt lat="43.41927" lon="5.73053">
        <ele>611</ele>
        <time>2012-11-02T11:08:57Z</time>
      </trkpt>
      <trkpt lat="43.4191" lon="5.73041">
        <ele>612</ele>
        <time>2012-11-02T11:09:17Z</time>
      </trkpt>
      <trkpt lat="43.41893" lon="5.73034">
        <ele>613</ele>
        <time>2012-11-02T11:09:37Z</time>
      </trkpt>
      <trkpt lat="43.4188" lon="5.73029">
        <ele>615</ele>
        <time>2012-11-02T11:09:56Z</time>
      </trkpt>
      <trkpt lat="43.41869" lon="5.73023">
        <ele>616</ele>
        <time>2012-11-02T11:10:14Z</time>
      </trkpt>
      <trkpt lat="43.41859" lon="5.73022">
        <ele>618</ele>
        <time>2012-11-02T11:10:31Z</time>
      </trkpt>
      <trkpt lat="43.4185" lon="5.73027">
        <ele>619</ele>
        <time>2012-11-02T11:10:52Z</time>
      </trkpt>
      <trkpt lat="43.4185" lon="5.73026">
        <ele>618</ele>
        <time>2012-11-02T11:11:20Z</time>
      </trkpt>
      <trkpt lat="43.41851" lon="5.73023">
        <ele>618</ele>
        <time>2012-11-02T11:11:40Z</time>
      </trkpt>
      <trkpt lat="43.41854" lon="5.7302">
        <ele>615</ele>
        <time>2012-11-02T11:12:14Z</time>
      </trkpt>
      <trkpt lat="43.41859" lon="5.73008">
        <ele>614</ele>
        <time>2012-11-02T11:12:32Z</time>
      </trkpt>
      <trkpt lat="43.41857" lon="5.72999">
        <ele>614</ele>
        <time>2012-11-02T11:12:51Z</time>
      </trkpt>
      <trkpt lat="43.41859" lon="5.72994">
        <ele>611</ele>
        <time>2012-11-02T11:13:07Z</time>
      </trkpt>
      <trkpt lat="43.41859" lon="5.72989">
        <ele>608</ele>
        <time>2012-11-02T11:13:29Z</time>
      </trkpt>
      <trkpt lat="43.41858" lon="5.72984">
        <ele>606</ele>
        <time>2012-11-02T11:13:50Z</time>
      </trkpt>
      <trkpt lat="43.41856" lon="5.72977">
        <ele>606</ele>
        <time>2012-11-02T11:14:09Z</time>
      </trkpt>
      <trkpt lat="43.41851" lon="5.72965">
        <ele>604</ele>
        <time>2012-11-02T11:14:29Z</time>
      </trkpt>
      <trkpt lat="43.41846" lon="5.72952">
        <ele>600</ele>
        <time>2012-11-02T11:14:47Z</time>
      </trkpt>
      <trkpt lat="43.41841" lon="5.72941">
        <ele>599</ele>
        <time>2012-11-02T11:15:05Z</time>
      </trkpt>
      <trkpt lat="43.41837" lon="5.72929">
        <ele>598</ele>
        <time>2012-11-02T11:15:24Z</time>
      </trkpt>
      <trkpt lat="43.41832" lon="5.7292">
        <ele>593</ele>
        <time>2012-11-02T11:15:45Z</time>
      </trkpt>
      <trkpt lat="43.4183" lon="5.72911">
        <ele>590</ele>
        <time>2012-11-02T11:15:59Z</time>
      </trkpt>
      <trkpt lat="43.41828" lon="5.72904">
        <ele>588</ele>
        <time>2012-11-02T11:16:09Z</time>
      </trkpt>
      <trkpt lat="43.41821" lon="5.72886">
        <ele>586</ele>
        <time>2012-11-02T11:16:23Z</time>
      </trkpt>
      <trkpt lat="43.41811" lon="5.72856">
        <ele>582</ele>
        <time>2012-11-02T11:16:42Z</time>
      </trkpt>
      <trkpt lat="43.418" lon="5.72836">
        <ele>580</ele>
        <time>2012-11-02T11:16:57Z</time>
      </trkpt>
      <trkpt lat="43.41787" lon="5.7281">
        <ele>578</ele>
        <time>2012-11-02T11:17:15Z</time>
      </trkpt>
      <trkpt lat="43.41776" lon="5.72787">
        <ele>576</ele>
        <time>2012-11-02T11:17:33Z</time>
      </trkpt>
      <trkpt lat="43.41774" lon="5.72785">
        <ele>575</ele>
        <time>2012-11-02T11:17:36Z</time>
      </trkpt>
      <trkpt lat="43.41771" lon="5.72758">
        <ele>576</ele>
        <time>2012-11-02T11:17:56Z</time>
      </trkpt>
      <trkpt lat="43.4177" lon="5.72735">
        <ele>575</ele>
        <time>2012-11-02T11:18:14Z</time>
      </trkpt>
      <trkpt lat="43.41769" lon="5.7271">
        <ele>575</ele>
        <time>2012-11-02T11:18:34Z</time>
      </trkpt>
      <trkpt lat="43.41767" lon="5.72693">
        <ele>575</ele>
        <time>2012-11-02T11:18:49Z</time>
      </trkpt>
      <trkpt lat="43.41761" lon="5.72673">
        <ele>574</ele>
        <time>2012-11-02T11:19:07Z</time>
      </trkpt>
      <trkpt lat="43.41749" lon="5.72659">
        <ele>575</ele>
        <time>2012-11-02T11:19:23Z</time>
      </trkpt>
      <trkpt lat="43.4173" lon="5.72653">
        <ele>573</ele>
        <time>2012-11-02T11:19:42Z</time>
      </trkpt>
      <trkpt lat="43.41729" lon="5.72652">
        <ele>572</ele>
        <time>2012-11-02T11:19:43Z</time>
      </trkpt>
      <trkpt lat="43.4172" lon="5.72641">
        <ele>571</ele>
        <time>2012-11-02T11:20:00Z</time>
      </trkpt>
      <trkpt lat="43.4171" lon="5.7262">
        <ele>574</ele>
        <time>2012-11-02T11:20:20Z</time>
      </trkpt>
      <trkpt lat="43.41708" lon="5.72619">
        <ele>574</ele>
        <time>2012-11-02T11:20:22Z</time>
      </trkpt>
      <trkpt lat="43.41701" lon="5.72603">
        <ele>577</ele>
        <time>2012-11-02T11:20:41Z</time>
      </trkpt>
      <trkpt lat="43.41699" lon="5.72598">
        <ele>577</ele>
        <time>2012-11-02T11:20:47Z</time>
      </trkpt>
      <trkpt lat="43.41692" lon="5.72592">
        <ele>575</ele>
        <time>2012-11-02T11:20:59Z</time>
      </trkpt>
      <trkpt lat="43.41687" lon="5.72574">
        <ele>575</ele>
        <time>2012-11-02T11:21:17Z</time>
      </trkpt>
      <trkpt lat="43.41684" lon="5.72564">
        <ele>573</ele>
        <time>2012-11-02T11:21:33Z</time>
      </trkpt>
      <trkpt lat="43.41683" lon="5.72563">
        <ele>572</ele>
        <time>2012-11-02T11:21:40Z</time>
      </trkpt>
      <trkpt lat="43.41682" lon="5.7255">
        <ele>569</ele>
        <time>2012-11-02T11:21:54Z</time>
      </trkpt>
      <trkpt lat="43.41674" lon="5.72533">
        <ele>563</ele>
        <time>2012-11-02T11:22:16Z</time>
      </trkpt>
      <trkpt lat="43.4167" lon="5.72518">
        <ele>563</ele>
        <time>2012-11-02T11:22:36Z</time>
      </trkpt>
      <trkpt lat="43.41665" lon="5.7251">
        <ele>557</ele>
        <time>2012-11-02T11:22:56Z</time>
      </trkpt>
      <trkpt lat="43.4166" lon="5.72499">
        <ele>554</ele>
        <time>2012-11-02T11:23:12Z</time>
      </trkpt>
      <trkpt lat="43.41655" lon="5.72486">
        <ele>552</ele>
        <time>2012-11-02T11:23:27Z</time>
      </trkpt>
      <trkpt lat="43.41646" lon="5.72468">
        <ele>549</ele>
        <time>2012-11-02T11:23:48Z</time>
      </trkpt>
      <trkpt lat="43.41637" lon="5.72451">
        <ele>546</ele>
        <time>2012-11-02T11:24:05Z</time>
      </trkpt>
      <trkpt lat="43.41627" lon="5.72427">
        <ele>546</ele>
        <time>2012-11-02T11:24:27Z</time>
      </trkpt>
      <trkpt lat="43.41616" lon="5.72409">
        <ele>546</ele>
        <time>2012-11-02T11:24:47Z</time>
      </trkpt>
      <trkpt lat="43.41609" lon="5.72404">
        <ele>546</ele>
        <time>2012-11-02T11:24:59Z</time>
      </trkpt>
      <trkpt lat="43.41597" lon="5.72395">
        <ele>547</ele>
        <time>2012-11-02T11:25:18Z</time>
      </trkpt>
      <trkpt lat="43.41589" lon="5.7239">
        <ele>544</ele>
        <time>2012-11-02T11:25:36Z</time>
      </trkpt>
      <trkpt lat="43.41579" lon="5.72378">
        <ele>543</ele>
        <time>2012-11-02T11:25:54Z</time>
      </trkpt>
      <trkpt lat="43.41574" lon="5.72373">
        <ele>543</ele>
        <time>2012-11-02T11:26:09Z</time>
      </trkpt>
      <trkpt lat="43.41563" lon="5.72361">
        <ele>542</ele>
        <time>2012-11-02T11:26:26Z</time>
      </trkpt>
      <trkpt lat="43.41555" lon="5.72354">
        <ele>539</ele>
        <time>2012-11-02T11:26:42Z</time>
      </trkpt>
      <trkpt lat="43.41548" lon="5.72351">
        <ele>539</ele>
        <time>2012-11-02T11:26:59Z</time>
      </trkpt>
      <trkpt lat="43.4154" lon="5.72343">
        <ele>539</ele>
        <time>2012-11-02T11:27:17Z</time>
      </trkpt>
      <trkpt lat="43.41541" lon="5.72342">
        <ele>540</ele>
        <time>2012-11-02T11:27:32Z</time>
      </trkpt>
      <trkpt lat="43.41545" lon="5.72353">
        <ele>541</ele>
        <time>2012-11-02T11:27:46Z</time>
      </trkpt>
      <trkpt lat="43.41548" lon="5.72361">
        <ele>543</ele>
        <time>2012-11-02T11:28:04Z</time>
      </trkpt>
      <trkpt lat="43.41548" lon="5.72365">
        <ele>543</ele>
        <time>2012-11-02T11:28:25Z</time>
      </trkpt>
      <trkpt lat="43.41548" lon="5.72365">
        <ele>542</ele>
        <time>2012-11-02T11:28:44Z</time>
      </trkpt>
      <trkpt lat="43.41551" lon="5.72365">
        <ele>542</ele>
        <time>2012-11-02T11:28:59Z</time>
      </trkpt>
      <trkpt lat="43.41557" lon="5.72364">
        <ele>543</ele>
        <time>2012-11-02T11:29:15Z</time>
      </trkpt>
      <trkpt lat="43.4156" lon="5.72364">
        <ele>543</ele>
        <time>2012-11-02T11:29:49Z</time>
      </trkpt>
      <trkpt lat="43.41559" lon="5.72362">
        <ele>541</ele>
        <time>2012-11-02T11:30:34Z</time>
      </trkpt>
      <trkpt lat="43.41557" lon="5.72361">
        <ele>542</ele>
        <time>2012-11-02T11:31:25Z</time>
      </trkpt>
      <trkpt lat="43.41557" lon="5.72363">
        <ele>539</ele>
        <time>2012-11-02T11:32:08Z</time>
      </trkpt>
      <trkpt lat="43.41558" lon="5.72364">
        <ele>538</ele>
        <time>2012-11-02T11:32:46Z</time>
      </trkpt>
      <trkpt lat="43.41559" lon="5.72364">
        <ele>540</ele>
        <time>2012-11-02T11:33:37Z</time>
      </trkpt>
      <trkpt lat="43.41559" lon="5.72365">
        <ele>540</ele>
        <time>2012-11-02T11:34:18Z</time>
      </trkpt>
      <trkpt lat="43.4156" lon="5.72365">
        <ele>540</ele>
        <time>2012-11-02T11:35:09Z</time>
      </trkpt>
      <trkpt lat="43.41568" lon="5.7237">
        <ele>539</ele>
        <time>2012-11-02T11:35:26Z</time>
      </trkpt>
      <trkpt lat="43.41575" lon="5.72379">
        <ele>540</ele>
        <time>2012-11-02T11:35:38Z</time>
      </trkpt>
      <trkpt lat="43.41588" lon="5.72393">
        <ele>543</ele>
        <time>2012-11-02T11:35:57Z</time>
      </trkpt>
      <trkpt lat="43.41593" lon="5.72392">
        <ele>542</ele>
        <time>2012-11-02T11:36:11Z</time>
      </trkpt>
      <trkpt lat="43.41598" lon="5.72384">
        <ele>540</ele>
        <time>2012-11-02T11:36:26Z</time>
      </trkpt>
      <trkpt lat="43.41601" lon="5.72376">
        <ele>538</ele>
        <time>2012-11-02T11:36:43Z</time>
      </trkpt>
      <trkpt lat="43.41603" lon="5.7237">
        <ele>536</ele>
        <time>2012-11-02T11:37:02Z</time>
      </trkpt>
      <trkpt lat="43.41604" lon="5.72359">
        <ele>534</ele>
        <time>2012-11-02T11:37:20Z</time>
      </trkpt>
      <trkpt lat="43.41607" lon="5.72355">
        <ele>532</ele>
        <time>2012-11-02T11:37:40Z</time>
      </trkpt>
      <trkpt lat="43.41608" lon="5.72349">
        <ele>531</ele>
        <time>2012-11-02T11:37:58Z</time>
      </trkpt>
      <trkpt lat="43.41613" lon="5.72345">
        <ele>529</ele>
        <time>2012-11-02T11:38:12Z</time>
      </trkpt>
      <trkpt lat="43.41617" lon="5.72338">
        <ele>529</ele>
        <time>2012-11-02T11:38:31Z</time>
      </trkpt>
      <trkpt lat="43.4162" lon="5.72332">
        <ele>526</ele>
        <time>2012-11-02T11:38:47Z</time>
      </trkpt>
      <trkpt lat="43.41624" lon="5.72329">
        <ele>523</ele>
        <time>2012-11-02T11:39:01Z</time>
      </trkpt>
      <trkpt lat="43.41625" lon="5.72324">
        <ele>523</ele>
        <time>2012-11-02T11:39:16Z</time>
      </trkpt>
      <trkpt lat="43.41627" lon="5.72321">
        <ele>517</ele>
        <time>2012-11-02T11:39:33Z</time>
      </trkpt>
      <trkpt lat="43.41628" lon="5.72317">
        <ele>513</ele>
        <time>2012-11-02T11:39:50Z</time>
      </trkpt>
      <trkpt lat="43.41629" lon="5.72313">
        <ele>513</ele>
        <time>2012-11-02T11:40:08Z</time>
      </trkpt>
      <trkpt lat="43.41629" lon="5.72309">
        <ele>513</ele>
        <time>2012-11-02T11:40:30Z</time>
      </trkpt>
      <trkpt lat="43.41627" lon="5.72307">
        <ele>510</ele>
        <time>2012-11-02T11:40:46Z</time>
      </trkpt>
      <trkpt lat="43.41632" lon="5.723">
        <ele>507</ele>
        <time>2012-11-02T11:41:03Z</time>
      </trkpt>
      <trkpt lat="43.41639" lon="5.72295">
        <ele>505</ele>
        <time>2012-11-02T11:41:20Z</time>
      </trkpt>
      <trkpt lat="43.41642" lon="5.72292">
        <ele>503</ele>
        <time>2012-11-02T11:41:39Z</time>
      </trkpt>
      <trkpt lat="43.41647" lon="5.7229">
        <ele>500</ele>
        <time>2012-11-02T11:41:55Z</time>
      </trkpt>
      <trkpt lat="43.41651" lon="5.7229">
        <ele>500</ele>
        <time>2012-11-02T11:42:11Z</time>
      </trkpt>
      <trkpt lat="43.41653" lon="5.72287">
        <ele>503</ele>
        <time>2012-11-02T11:42:27Z</time>
      </trkpt>
      <trkpt lat="43.41654" lon="5.72284">
        <ele>505</ele>
        <time>2012-11-02T11:42:44Z</time>
      </trkpt>
      <trkpt lat="43.41654" lon="5.7228">
        <ele>501</ele>
        <time>2012-11-02T11:43:01Z</time>
      </trkpt>
      <trkpt lat="43.41655" lon="5.72274">
        <ele>499</ele>
        <time>2012-11-02T11:43:20Z</time>
      </trkpt>
      <trkpt lat="43.41656" lon="5.72267">
        <ele>498</ele>
        <time>2012-11-02T11:43:37Z</time>
      </trkpt>
      <trkpt lat="43.41657" lon="5.72261">
        <ele>495</ele>
        <time>2012-11-02T11:43:54Z</time>
      </trkpt>
      <trkpt lat="43.41658" lon="5.72252">
        <ele>492</ele>
        <time>2012-11-02T11:44:11Z</time>
      </trkpt>
      <trkpt lat="43.41661" lon="5.7224">
        <ele>489</ele>
        <time>2012-11-02T11:44:30Z</time>
      </trkpt>
      <trkpt lat="43.41662" lon="5.72227">
        <ele>486</ele>
        <time>2012-11-02T11:44:47Z</time>
      </trkpt>
      <trkpt lat="43.41665" lon="5.72213">
        <ele>482</ele>
        <time>2012-11-02T11:45:06Z</time>
      </trkpt>
      <trkpt lat="43.4167" lon="5.72197">
        <ele>480</ele>
        <time>2012-11-02T11:45:26Z</time>
      </trkpt>
      <trkpt lat="43.41678" lon="5.72183">
        <ele>477</ele>
        <time>2012-11-02T11:45:45Z</time>
      </trkpt>
      <trkpt lat="43.41666" lon="5.72172">
        <ele>476</ele>
        <time>2012-11-02T11:46:02Z</time>
      </trkpt>
      <trkpt lat="43.41665" lon="5.72171">
        <ele>476</ele>
        <time>2012-11-02T11:46:04Z</time>
      </trkpt>
      <trkpt lat="43.41658" lon="5.72161">
        <ele>476</ele>
        <time>2012-11-02T11:46:15Z</time>
      </trkpt>
      <trkpt lat="43.41648" lon="5.72138">
        <ele>475</ele>
        <time>2012-11-02T11:46:35Z</time>
      </trkpt>
      <trkpt lat="43.41643" lon="5.72121">
        <ele>475</ele>
        <time>2012-11-02T11:46:54Z</time>
      </trkpt>
      <trkpt lat="43.41639" lon="5.72096">
        <ele>476</ele>
        <time>2012-11-02T11:47:13Z</time>
      </trkpt>
      <trkpt lat="43.41635" lon="5.72077">
        <ele>477</ele>
        <time>2012-11-02T11:47:31Z</time>
      </trkpt>
      <trkpt lat="43.41628" lon="5.72055">
        <ele>476</ele>
        <time>2012-11-02T11:47:49Z</time>
      </trkpt>
      <trkpt lat="43.41616" lon="5.72035">
        <ele>476</ele>
        <time>2012-11-02T11:48:06Z</time>
      </trkpt>
      <trkpt lat="43.41604" lon="5.72013">
        <ele>475</ele>
        <time>2012-11-02T11:48:27Z</time>
      </trkpt>
      <trkpt lat="43.4159" lon="5.72">
        <ele>473</ele>
        <time>2012-11-02T11:48:44Z</time>
      </trkpt>
      <trkpt lat="43.41578" lon="5.71986">
        <ele>470</ele>
        <time>2012-11-02T11:49:01Z</time>
      </trkpt>
      <trkpt lat="43.41566" lon="5.71972">
        <ele>468</ele>
        <time>2012-11-02T11:49:20Z</time>
      </trkpt>
      <trkpt lat="43.41558" lon="5.71958">
        <ele>467</ele>
        <time>2012-11-02T11:49:38Z</time>
      </trkpt>
      <trkpt lat="43.41552" lon="5.71944">
        <ele>464</ele>
        <time>2012-11-02T11:49:55Z</time>
      </trkpt>
      <trkpt lat="43.41545" lon="5.7193">
        <ele>464</ele>
        <time>2012-11-02T11:50:11Z</time>
      </trkpt>
      <trkpt lat="43.41539" lon="5.71914">
        <ele>462</ele>
        <time>2012-11-02T11:50:27Z</time>
      </trkpt>
      <trkpt lat="43.41528" lon="5.71896">
        <ele>458</ele>
        <time>2012-11-02T11:50:44Z</time>
      </trkpt>
      <trkpt lat="43.41526" lon="5.71894">
        <ele>458</ele>
        <time>2012-11-02T11:50:47Z</time>
      </trkpt>
      <trkpt lat="43.41525" lon="5.71891">
        <ele>457</ele>
        <time>2012-11-02T11:50:49Z</time>
      </trkpt>
      <trkpt lat="43.41516" lon="5.71875">
        <ele>454</ele>
        <time>2012-11-02T11:51:06Z</time>
      </trkpt>
      <trkpt lat="43.41513" lon="5.71868">
        <ele>456</ele>
        <time>2012-11-02T11:51:21Z</time>
      </trkpt>
      <trkpt lat="43.41503" lon="5.71851">
        <ele>454</ele>
        <time>2012-11-02T11:51:39Z</time>
      </trkpt>
      <trkpt lat="43.41501" lon="5.71845">
        <ele>454</ele>
        <time>2012-11-02T11:51:53Z</time>
      </trkpt>
      <trkpt lat="43.41499" lon="5.71838">
        <ele>453</ele>
        <time>2012-11-02T11:51:59Z</time>
      </trkpt>
      <trkpt lat="43.41494" lon="5.71826">
        <ele>452</ele>
        <time>2012-11-02T11:52:19Z</time>
      </trkpt>
      <trkpt lat="43.41491" lon="5.71808">
        <ele>451</ele>
        <time>2012-11-02T11:52:36Z</time>
      </trkpt>
      <trkpt lat="43.41489" lon="5.71799">
        <ele>451</ele>
        <time>2012-11-02T11:52:54Z</time>
      </trkpt>
      <trkpt lat="43.41491" lon="5.71804">
        <ele>452</ele>
        <time>2012-11-02T11:53:09Z</time>
      </trkpt>
      <trkpt lat="43.41494" lon="5.71815">
        <ele>453</ele>
        <time>2012-11-02T11:53:18Z</time>
      </trkpt>
      <trkpt lat="43.41496" lon="5.71827">
        <ele>455</ele>
        <time>2012-11-02T11:53:33Z</time>
      </trkpt>
      <trkpt lat="43.41488" lon="5.71822">
        <ele>456</ele>
        <time>2012-11-02T11:53:49Z</time>
      </trkpt>
      <trkpt lat="43.41481" lon="5.71806">
        <ele>455</ele>
        <time>2012-11-02T11:54:07Z</time>
      </trkpt>
      <trkpt lat="43.41474" lon="5.71789">
        <ele>454</ele>
        <time>2012-11-02T11:54:28Z</time>
      </trkpt>
      <trkpt lat="43.41474" lon="5.71784">
        <ele>453</ele>
        <time>2012-11-02T11:54:47Z</time>
      </trkpt>
      <trkpt lat="43.41476" lon="5.71779">
        <ele>453</ele>
        <time>2012-11-02T11:55:06Z</time>
      </trkpt>
      <trkpt lat="43.41477" lon="5.71778">
        <ele>452</ele>
        <time>2012-11-02T11:55:10Z</time>
      </trkpt>
      <trkpt lat="43.4147" lon="5.71758">
        <ele>449</ele>
        <time>2012-11-02T11:55:26Z</time>
      </trkpt>
      <trkpt lat="43.41465" lon="5.71743">
        <ele>447</ele>
        <time>2012-11-02T11:55:40Z</time>
      </trkpt>
      <trkpt lat="43.41464" lon="5.71728">
        <ele>446</ele>
        <time>2012-11-02T11:55:57Z</time>
      </trkpt>
      <trkpt lat="43.41464" lon="5.71718">
        <ele>445</ele>
        <time>2012-11-02T11:56:12Z</time>
      </trkpt>
      <trkpt lat="43.41463" lon="5.71718">
        <ele>446</ele>
        <time>2012-11-02T11:56:13Z</time>
      </trkpt>
      <trkpt lat="43.41462" lon="5.71716">
        <ele>445</ele>
        <time>2012-11-02T11:56:15Z</time>
      </trkpt>
      <trkpt lat="43.41454" lon="5.71688">
        <ele>440</ele>
        <time>2012-11-02T11:56:33Z</time>
      </trkpt>
      <trkpt lat="43.41449" lon="5.71673">
        <ele>439</ele>
        <time>2012-11-02T11:56:48Z</time>
      </trkpt>
      <trkpt lat="43.4144" lon="5.7165">
        <ele>437</ele>
        <time>2012-11-02T11:57:04Z</time>
      </trkpt>
      <trkpt lat="43.41432" lon="5.71626">
        <ele>434</ele>
        <time>2012-11-02T11:57:20Z</time>
      </trkpt>
      <trkpt lat="43.41418" lon="5.716">
        <ele>433</ele>
        <time>2012-11-02T11:57:41Z</time>
      </trkpt>
      <trkpt lat="43.41411" lon="5.71583">
        <ele>432</ele>
        <time>2012-11-02T11:57:56Z</time>
      </trkpt>
      <trkpt lat="43.41406" lon="5.71564">
        <ele>432</ele>
        <time>2012-11-02T11:58:14Z</time>
      </trkpt>
      <trkpt lat="43.41403" lon="5.71545">
        <ele>429</ele>
        <time>2012-11-02T11:58:31Z</time>
      </trkpt>
      <trkpt lat="43.41394" lon="5.71539">
        <ele>426</ele>
        <time>2012-11-02T11:58:48Z</time>
      </trkpt>
      <trkpt lat="43.41385" lon="5.71539">
        <ele>425</ele>
        <time>2012-11-02T11:59:02Z</time>
      </trkpt>
      <trkpt lat="43.41373" lon="5.71534">
        <ele>422</ele>
        <time>2012-11-02T11:59:19Z</time>
      </trkpt>
      <trkpt lat="43.4136" lon="5.71536">
        <ele>423</ele>
        <time>2012-11-02T11:59:36Z</time>
      </trkpt>
      <trkpt lat="43.41358" lon="5.71535">
        <ele>423</ele>
        <time>2012-11-02T11:59:40Z</time>
      </trkpt>
      <trkpt lat="43.41347" lon="5.7153">
        <ele>419</ele>
        <time>2012-11-02T11:59:56Z</time>
      </trkpt>
      <trkpt lat="43.41337" lon="5.71527">
        <ele>418</ele>
        <time>2012-11-02T12:00:12Z</time>
      </trkpt>
      <trkpt lat="43.41337" lon="5.71526">
        <ele>418</ele>
        <time>2012-11-02T12:00:13Z</time>
      </trkpt>
      <trkpt lat="43.41325" lon="5.71521">
        <ele>415</ele>
        <time>2012-11-02T12:00:28Z</time>
      </trkpt>
      <trkpt lat="43.41318" lon="5.71523">
        <ele>415</ele>
        <time>2012-11-02T12:00:36Z</time>
      </trkpt>
      <trkpt lat="43.41305" lon="5.7153">
        <ele>415</ele>
        <time>2012-11-02T12:00:51Z</time>
      </trkpt>
      <trkpt lat="43.41293" lon="5.71531">
        <ele>414</ele>
        <time>2012-11-02T12:01:08Z</time>
      </trkpt>
      <trkpt lat="43.41286" lon="5.71531">
        <ele>414</ele>
        <time>2012-11-02T12:01:23Z</time>
      </trkpt>
      <trkpt lat="43.41277" lon="5.7153">
        <ele>414</ele>
        <time>2012-11-02T12:01:38Z</time>
      </trkpt>
      <trkpt lat="43.4127" lon="5.71536">
        <ele>414</ele>
        <time>2012-11-02T12:01:48Z</time>
      </trkpt>
      <trkpt lat="43.41257" lon="5.71547">
        <ele>414</ele>
        <time>2012-11-02T12:02:08Z</time>
      </trkpt>
      <trkpt lat="43.41251" lon="5.71565">
        <ele>414</ele>
        <time>2012-11-02T12:02:22Z</time>
      </trkpt>
      <trkpt lat="43.41248" lon="5.71572">
        <ele>413</ele>
        <time>2012-11-02T12:02:30Z</time>
      </trkpt>
      <trkpt lat="43.41236" lon="5.71587">
        <ele>413</ele>
        <time>2012-11-02T12:02:50Z</time>
      </trkpt>
      <trkpt lat="43.4123" lon="5.7159">
        <ele>414</ele>
        <time>2012-11-02T12:03:05Z</time>
      </trkpt>
      <trkpt lat="43.41222" lon="5.71598">
        <ele>414</ele>
        <time>2012-11-02T12:03:19Z</time>
      </trkpt>
      <trkpt lat="43.4122" lon="5.71602">
        <ele>414</ele>
        <time>2012-11-02T12:03:22Z</time>
      </trkpt>
      <trkpt lat="43.41205" lon="5.71615">
        <ele>413</ele>
        <time>2012-11-02T12:03:38Z</time>
      </trkpt>
      <trkpt lat="43.41194" lon="5.71618">
        <ele>411</ele>
        <time>2012-11-02T12:03:47Z</time>
      </trkpt>
      <trkpt lat="43.41176" lon="5.7161">
        <ele>408</ele>
        <time>2012-11-02T12:04:05Z</time>
      </trkpt>
      <trkpt lat="43.4116" lon="5.71595">
        <ele>407</ele>
        <time>2012-11-02T12:04:23Z</time>
      </trkpt>
      <trkpt lat="43.41154" lon="5.71589">
        <ele>407</ele>
        <time>2012-11-02T12:04:31Z</time>
      </trkpt>
      <trkpt lat="43.41144" lon="5.71596">
        <ele>409</ele>
        <time>2012-11-02T12:04:45Z</time>
      </trkpt>
      <trkpt lat="43.41145" lon="5.71599">
        <ele>411</ele>
        <time>2012-11-02T12:05:01Z</time>
      </trkpt>
      <trkpt lat="43.41142" lon="5.71606">
        <ele>411</ele>
        <time>2012-11-02T12:05:06Z</time>
      </trkpt>
      <trkpt lat="43.41131" lon="5.71622">
        <ele>408</ele>
        <time>2012-11-02T12:05:22Z</time>
      </trkpt>
      <trkpt lat="43.41129" lon="5.71622">
        <ele>407</ele>
        <time>2012-11-02T12:05:24Z</time>
      </trkpt>
      <trkpt lat="43.4112" lon="5.71619">
        <ele>407</ele>
        <time>2012-11-02T12:05:33Z</time>
      </trkpt>
      <trkpt lat="43.41108" lon="5.71617">
        <ele>405</ele>
        <time>2012-11-02T12:05:47Z</time>
      </trkpt>
      <trkpt lat="43.41096" lon="5.71616">
        <ele>404</ele>
        <time>2012-11-02T12:06:04Z</time>
      </trkpt>
      <trkpt lat="43.41092" lon="5.71617">
        <ele>404</ele>
        <time>2012-11-02T12:06:09Z</time>
      </trkpt>
      <trkpt lat="43.41085" lon="5.7163">
        <ele>405</ele>
        <time>2012-11-02T12:06:25Z</time>
      </trkpt>
      <trkpt lat="43.4108" lon="5.71637">
        <ele>406</ele>
        <time>2012-11-02T12:06:41Z</time>
      </trkpt>
      <trkpt lat="43.41078" lon="5.71634">
        <ele>406</ele>
        <time>2012-11-02T12:07:05Z</time>
      </trkpt>
      <trkpt lat="43.41077" lon="5.71637">
        <ele>407</ele>
        <time>2012-11-02T12:07:26Z</time>
      </trkpt>
      <trkpt lat="43.41074" lon="5.7164">
        <ele>406</ele>
        <time>2012-11-02T12:07:47Z</time>
      </trkpt>
      <trkpt lat="43.41075" lon="5.71634">
        <ele>407</ele>
        <time>2012-11-02T12:08:11Z</time>
      </trkpt>
      <trkpt lat="43.41079" lon="5.71637">
        <ele>408</ele>
        <time>2012-11-02T12:08:27Z</time>
      </trkpt>
      <trkpt lat="43.41076" lon="5.71642">
        <ele>408</ele>
        <time>2012-11-02T12:08:40Z</time>
      </trkpt>
      <trkpt lat="43.41067" lon="5.71641">
        <ele>405</ele>
        <time>2012-11-02T12:08:56Z</time>
      </trkpt>
      <trkpt lat="43.41061" lon="5.71637">
        <ele>406</ele>
        <time>2012-11-02T12:09:13Z</time>
      </trkpt>
      <trkpt lat="43.41057" lon="5.71633">
        <ele>405</ele>
        <time>2012-11-02T12:09:21Z</time>
      </trkpt>
      <trkpt lat="43.41049" lon="5.7163">
        <ele>405</ele>
        <time>2012-11-02T12:09:32Z</time>
      </trkpt>
      <trkpt lat="43.41048" lon="5.71631">
        <ele>404</ele>
        <time>2012-11-02T12:09:34Z</time>
      </trkpt>
      <trkpt lat="43.41032" lon="5.7162">
        <ele>405</ele>
        <time>2012-11-02T12:09:53Z</time>
      </trkpt>
      <trkpt lat="43.41016" lon="5.71604">
        <ele>404</ele>
        <time>2012-11-02T12:10:13Z</time>
      </trkpt>
      <trkpt lat="43.41008" lon="5.71602">
        <ele>404</ele>
        <time>2012-11-02T12:10:29Z</time>
      </trkpt>
      <trkpt lat="43.41005" lon="5.71605">
        <ele>404</ele>
        <time>2012-11-02T12:10:38Z</time>
      </trkpt>
      <trkpt lat="43.40991" lon="5.71613">
        <ele>403</ele>
        <time>2012-11-02T12:10:54Z</time>
      </trkpt>
      <trkpt lat="43.4099" lon="5.71614">
        <ele>403</ele>
        <time>2012-11-02T12:10:55Z</time>
      </trkpt>
      <trkpt lat="43.40978" lon="5.71623">
        <ele>400</ele>
        <time>2012-11-02T12:11:12Z</time>
      </trkpt>
      <trkpt lat="43.4096" lon="5.71623">
        <ele>399</ele>
        <time>2012-11-02T12:11:30Z</time>
      </trkpt>
      <trkpt lat="43.40948" lon="5.71605">
        <ele>400</ele>
        <time>2012-11-02T12:11:47Z</time>
      </trkpt>
      <trkpt lat="43.40942" lon="5.71597">
        <ele>401</ele>
        <time>2012-11-02T12:12:04Z</time>
      </trkpt>
      <trkpt lat="43.4094" lon="5.71585">
        <ele>400</ele>
        <time>2012-11-02T12:12:20Z</time>
      </trkpt>
      <trkpt lat="43.40933" lon="5.71568">
        <ele>399</ele>
        <time>2012-11-02T12:12:36Z</time>
      </trkpt>
      <trkpt lat="43.40924" lon="5.7155">
        <ele>399</ele>
        <time>2012-11-02T12:12:51Z</time>
      </trkpt>
      <trkpt lat="43.40912" lon="5.71538">
        <ele>398</ele>
        <time>2012-11-02T12:13:07Z</time>
      </trkpt>
      <trkpt lat="43.40904" lon="5.71541">
        <ele>396</ele>
        <time>2012-11-02T12:13:25Z</time>
      </trkpt>
      <trkpt lat="43.40899" lon="5.71547">
        <ele>396</ele>
        <time>2012-11-02T12:13:40Z</time>
      </trkpt>
      <trkpt lat="43.40901" lon="5.71535">
        <ele>396</ele>
        <time>2012-11-02T12:13:58Z</time>
      </trkpt>
      <trkpt lat="43.40903" lon="5.71528">
        <ele>397</ele>
        <time>2012-11-02T12:14:29Z</time>
      </trkpt>
      <trkpt lat="43.40902" lon="5.71531">
        <ele>395</ele>
        <time>2012-11-02T12:15:12Z</time>
      </trkpt>
      <trkpt lat="43.40905" lon="5.71532">
        <ele>396</ele>
        <time>2012-11-02T12:15:23Z</time>
      </trkpt>
      <trkpt lat="43.40906" lon="5.71472">
        <ele>399</ele>
        <time>2012-11-02T13:18:32Z</time>
      </trkpt>
      <trkpt lat="43.40908" lon="5.71485">
        <ele>399</ele>
        <time>2012-11-02T13:19:10Z</time>
      </trkpt>
      <trkpt lat="43.40908" lon="5.71495">
        <ele>400</ele>
        <time>2012-11-02T13:19:25Z</time>
      </trkpt>
      <trkpt lat="43.40909" lon="5.71508">
        <ele>400</ele>
        <time>2012-11-02T13:19:43Z</time>
      </trkpt>
      <trkpt lat="43.40907" lon="5.71519">
        <ele>398</ele>
        <time>2012-11-02T13:20:01Z</time>
      </trkpt>
      <trkpt lat="43.40904" lon="5.71529">
        <ele>397</ele>
        <time>2012-11-02T13:20:19Z</time>
      </trkpt>
      <trkpt lat="43.40904" lon="5.71531">
        <ele>396</ele>
        <time>2012-11-02T13:20:22Z</time>
      </trkpt>
      <trkpt lat="43.40901" lon="5.71543">
        <ele>395</ele>
        <time>2012-11-02T13:20:34Z</time>
      </trkpt>
      <trkpt lat="43.40885" lon="5.71559">
        <ele>395</ele>
        <time>2012-11-02T13:20:50Z</time>
      </trkpt>
      <trkpt lat="43.40873" lon="5.7157">
        <ele>395</ele>
        <time>2012-11-02T13:21:07Z</time>
      </trkpt>
      <trkpt lat="43.40861" lon="5.71581">
        <ele>397</ele>
        <time>2012-11-02T13:21:23Z</time>
      </trkpt>
      <trkpt lat="43.40857" lon="5.71585">
        <ele>396</ele>
        <time>2012-11-02T13:21:26Z</time>
      </trkpt>
      <trkpt lat="43.40838" lon="5.7159">
        <ele>401</ele>
        <time>2012-11-02T13:21:43Z</time>
      </trkpt>
      <trkpt lat="43.40834" lon="5.71574">
        <ele>396</ele>
        <time>2012-11-02T13:21:58Z</time>
      </trkpt>
      <trkpt lat="43.40834" lon="5.7157">
        <ele>394</ele>
        <time>2012-11-02T13:22:01Z</time>
      </trkpt>
      <trkpt lat="43.40835" lon="5.71554">
        <ele>392</ele>
        <time>2012-11-02T13:22:12Z</time>
      </trkpt>
      <trkpt lat="43.40841" lon="5.71524">
        <ele>394</ele>
        <time>2012-11-02T13:22:34Z</time>
      </trkpt>
      <trkpt lat="43.40834" lon="5.71496">
        <ele>393</ele>
        <time>2012-11-02T13:22:56Z</time>
      </trkpt>
      <trkpt lat="43.40824" lon="5.71472">
        <ele>392</ele>
        <time>2012-11-02T13:23:17Z</time>
      </trkpt>
      <trkpt lat="43.40806" lon="5.71465">
        <ele>391</ele>
        <time>2012-11-02T13:23:36Z</time>
      </trkpt>
      <trkpt lat="43.40788" lon="5.71472">
        <ele>392</ele>
        <time>2012-11-02T13:23:53Z</time>
      </trkpt>
      <trkpt lat="43.40771" lon="5.71479">
        <ele>393</ele>
        <time>2012-11-02T13:24:12Z</time>
      </trkpt>
      <trkpt lat="43.40751" lon="5.71475">
        <ele>392</ele>
        <time>2012-11-02T13:24:31Z</time>
      </trkpt>
      <trkpt lat="43.40731" lon="5.71468">
        <ele>392</ele>
        <time>2012-11-02T13:24:52Z</time>
      </trkpt>
      <trkpt lat="43.40712" lon="5.7147">
        <ele>393</ele>
        <time>2012-11-02T13:25:14Z</time>
      </trkpt>
      <trkpt lat="43.40709" lon="5.71471">
        <ele>393</ele>
        <time>2012-11-02T13:25:19Z</time>
      </trkpt>
      <trkpt lat="43.40696" lon="5.71467">
        <ele>390</ele>
        <time>2012-11-02T13:25:37Z</time>
      </trkpt>
      <trkpt lat="43.40681" lon="5.71457">
        <ele>389</ele>
        <time>2012-11-02T13:25:54Z</time>
      </trkpt>
      <trkpt lat="43.40668" lon="5.71453">
        <ele>389</ele>
        <time>2012-11-02T13:26:12Z</time>
      </trkpt>
      <trkpt lat="43.4066" lon="5.71449">
        <ele>391</ele>
        <time>2012-11-02T13:26:29Z</time>
      </trkpt>
      <trkpt lat="43.40665" lon="5.71443">
        <ele>390</ele>
        <time>2012-11-02T13:26:47Z</time>
      </trkpt>
      <trkpt lat="43.40665" lon="5.7144">
        <ele>391</ele>
        <time>2012-11-02T13:27:22Z</time>
      </trkpt>
      <trkpt lat="43.40665" lon="5.71441">
        <ele>388</ele>
        <time>2012-11-02T13:27:56Z</time>
      </trkpt>
      <trkpt lat="43.40645" lon="5.71434">
        <ele>391</ele>
        <time>2012-11-02T13:28:16Z</time>
      </trkpt>
      <trkpt lat="43.40628" lon="5.71428">
        <ele>392</ele>
        <time>2012-11-02T13:28:33Z</time>
      </trkpt>
      <trkpt lat="43.40612" lon="5.71428">
        <ele>394</ele>
        <time>2012-11-02T13:28:48Z</time>
      </trkpt>
      <trkpt lat="43.40604" lon="5.71429">
        <ele>394</ele>
        <time>2012-11-02T13:28:55Z</time>
      </trkpt>
      <trkpt lat="43.40584" lon="5.71431">
        <ele>394</ele>
        <time>2012-11-02T13:29:11Z</time>
      </trkpt>
      <trkpt lat="43.40567" lon="5.71432">
        <ele>396</ele>
        <time>2012-11-02T13:29:29Z</time>
      </trkpt>
      <trkpt lat="43.40557" lon="5.71432">
        <ele>396</ele>
        <time>2012-11-02T13:29:46Z</time>
      </trkpt>
      <trkpt lat="43.40543" lon="5.71431">
        <ele>394</ele>
        <time>2012-11-02T13:30:03Z</time>
      </trkpt>
      <trkpt lat="43.40529" lon="5.71434">
        <ele>395</ele>
        <time>2012-11-02T13:30:20Z</time>
      </trkpt>
      <trkpt lat="43.40519" lon="5.71436">
        <ele>393</ele>
        <time>2012-11-02T13:30:36Z</time>
      </trkpt>
      <trkpt lat="43.4051" lon="5.71442">
        <ele>391</ele>
        <time>2012-11-02T13:30:52Z</time>
      </trkpt>
      <trkpt lat="43.40498" lon="5.71459">
        <ele>387</ele>
        <time>2012-11-02T13:31:12Z</time>
      </trkpt>
      <trkpt lat="43.40497" lon="5.7146">
        <ele>387</ele>
        <time>2012-11-02T13:31:13Z</time>
      </trkpt>
      <trkpt lat="43.40483" lon="5.71479">
        <ele>384</ele>
        <time>2012-11-02T13:31:33Z</time>
      </trkpt>
      <trkpt lat="43.40475" lon="5.7149">
        <ele>383</ele>
        <time>2012-11-02T13:31:49Z</time>
      </trkpt>
      <trkpt lat="43.40462" lon="5.71508">
        <ele>381</ele>
        <time>2012-11-02T13:32:06Z</time>
      </trkpt>
      <trkpt lat="43.40453" lon="5.7152">
        <ele>379</ele>
        <time>2012-11-02T13:32:21Z</time>
      </trkpt>
      <trkpt lat="43.40445" lon="5.71534">
        <ele>378</ele>
        <time>2012-11-02T13:32:38Z</time>
      </trkpt>
      <trkpt lat="43.40432" lon="5.71554">
        <ele>377</ele>
        <time>2012-11-02T13:33:01Z</time>
      </trkpt>
      <trkpt lat="43.40419" lon="5.7157">
        <ele>376</ele>
        <time>2012-11-02T13:33:21Z</time>
      </trkpt>
      <trkpt lat="43.4041" lon="5.71571">
        <ele>376</ele>
        <time>2012-11-02T13:33:38Z</time>
      </trkpt>
      <trkpt lat="43.40407" lon="5.71566">
        <ele>376</ele>
        <time>2012-11-02T13:33:54Z</time>
      </trkpt>
      <trkpt lat="43.40399" lon="5.71557">
        <ele>375</ele>
        <time>2012-11-02T13:34:12Z</time>
      </trkpt>
      <trkpt lat="43.40394" lon="5.71547">
        <ele>374</ele>
        <time>2012-11-02T13:34:30Z</time>
      </trkpt>
      <trkpt lat="43.40389" lon="5.71539">
        <ele>374</ele>
        <time>2012-11-02T13:34:45Z</time>
      </trkpt>
      <trkpt lat="43.40387" lon="5.71538">
        <ele>374</ele>
        <time>2012-11-02T13:34:47Z</time>
      </trkpt>
      <trkpt lat="43.40372" lon="5.71514">
        <ele>375</ele>
        <time>2012-11-02T13:35:11Z</time>
      </trkpt>
      <trkpt lat="43.40362" lon="5.715">
        <ele>374</ele>
        <time>2012-11-02T13:35:26Z</time>
      </trkpt>
      <trkpt lat="43.4036" lon="5.71496">
        <ele>374</ele>
        <time>2012-11-02T13:35:30Z</time>
      </trkpt>
      <trkpt lat="43.40358" lon="5.71494">
        <ele>374</ele>
        <time>2012-11-02T13:35:32Z</time>
      </trkpt>
      <trkpt lat="43.40345" lon="5.71476">
        <ele>374</ele>
        <time>2012-11-02T13:35:50Z</time>
      </trkpt>
      <trkpt lat="43.4033" lon="5.71452">
        <ele>377</ele>
        <time>2012-11-02T13:36:10Z</time>
      </trkpt>
      <trkpt lat="43.40317" lon="5.71428">
        <ele>378</ele>
        <time>2012-11-02T13:36:31Z</time>
      </trkpt>
      <trkpt lat="43.40314" lon="5.71424">
        <ele>378</ele>
        <time>2012-11-02T13:36:39Z</time>
      </trkpt>
      <trkpt lat="43.40311" lon="5.71418">
        <ele>378</ele>
        <time>2012-11-02T13:36:43Z</time>
      </trkpt>
      <trkpt lat="43.40296" lon="5.71388">
        <ele>380</ele>
        <time>2012-11-02T13:37:09Z</time>
      </trkpt>
      <trkpt lat="43.4029" lon="5.7136">
        <ele>377</ele>
        <time>2012-11-02T13:37:29Z</time>
      </trkpt>
      <trkpt lat="43.40286" lon="5.71349">
        <ele>376</ele>
        <time>2012-11-02T13:37:45Z</time>
      </trkpt>
      <trkpt lat="43.40283" lon="5.71347">
        <ele>376</ele>
        <time>2012-11-02T13:37:49Z</time>
      </trkpt>
      <trkpt lat="43.40265" lon="5.71343">
        <ele>373</ele>
        <time>2012-11-02T13:38:08Z</time>
      </trkpt>
      <trkpt lat="43.40247" lon="5.71337">
        <ele>372</ele>
        <time>2012-11-02T13:38:27Z</time>
      </trkpt>
      <trkpt lat="43.40224" lon="5.71328">
        <ele>371</ele>
        <time>2012-11-02T13:38:51Z</time>
      </trkpt>
      <trkpt lat="43.40201" lon="5.71318">
        <ele>368</ele>
        <time>2012-11-02T13:39:15Z</time>
      </trkpt>
      <trkpt lat="43.40185" lon="5.71312">
        <ele>367</ele>
        <time>2012-11-02T13:39:32Z</time>
      </trkpt>
      <trkpt lat="43.40175" lon="5.713">
        <ele>364</ele>
        <time>2012-11-02T13:39:47Z</time>
      </trkpt>
      <trkpt lat="43.4017" lon="5.71276">
        <ele>361</ele>
        <time>2012-11-02T13:40:05Z</time>
      </trkpt>
      <trkpt lat="43.40169" lon="5.7127">
        <ele>359</ele>
        <time>2012-11-02T13:40:10Z</time>
      </trkpt>
      <trkpt lat="43.40165" lon="5.71243">
        <ele>358</ele>
        <time>2012-11-02T13:40:33Z</time>
      </trkpt>
      <trkpt lat="43.40164" lon="5.71228">
        <ele>356</ele>
        <time>2012-11-02T13:40:47Z</time>
      </trkpt>
      <trkpt lat="43.40161" lon="5.71208">
        <ele>354</ele>
        <time>2012-11-02T13:41:02Z</time>
      </trkpt>
      <trkpt lat="43.40146" lon="5.71191">
        <ele>350</ele>
        <time>2012-11-02T13:41:22Z</time>
      </trkpt>
      <trkpt lat="43.4013" lon="5.71174">
        <ele>348</ele>
        <time>2012-11-02T13:41:43Z</time>
      </trkpt>
      <trkpt lat="43.40115" lon="5.71153">
        <ele>345</ele>
        <time>2012-11-02T13:42:06Z</time>
      </trkpt>
      <trkpt lat="43.40106" lon="5.71133">
        <ele>344</ele>
        <time>2012-11-02T13:42:24Z</time>
      </trkpt>
      <trkpt lat="43.40097" lon="5.71111">
        <ele>339</ele>
        <time>2012-11-02T13:42:44Z</time>
      </trkpt>
      <trkpt lat="43.40085" lon="5.7109">
        <ele>338</ele>
        <time>2012-11-02T13:43:04Z</time>
      </trkpt>
      <trkpt lat="43.40078" lon="5.71073">
        <ele>339</ele>
        <time>2012-11-02T13:43:19Z</time>
      </trkpt>
      <trkpt lat="43.40064" lon="5.71055">
        <ele>335</ele>
        <time>2012-11-02T13:43:38Z</time>
      </trkpt>
      <trkpt lat="43.40064" lon="5.71053">
        <ele>334</ele>
        <time>2012-11-02T13:43:40Z</time>
      </trkpt>
      <trkpt lat="43.40064" lon="5.71048">
        <ele>335</ele>
        <time>2012-11-02T13:43:50Z</time>
      </trkpt>
      <trkpt lat="43.40053" lon="5.71033">
        <ele>331</ele>
        <time>2012-11-02T13:44:07Z</time>
      </trkpt>
      <trkpt lat="43.40049" lon="5.71022">
        <ele>328</ele>
        <time>2012-11-02T13:44:16Z</time>
      </trkpt>
      <trkpt lat="43.40038" lon="5.71002">
        <ele>328</ele>
        <time>2012-11-02T13:44:35Z</time>
      </trkpt>
      <trkpt lat="43.40028" lon="5.70978">
        <ele>324</ele>
        <time>2012-11-02T13:44:57Z</time>
      </trkpt>
      <trkpt lat="43.40021" lon="5.70958">
        <ele>322</ele>
        <time>2012-11-02T13:45:15Z</time>
      </trkpt>
      <trkpt lat="43.40013" lon="5.70949">
        <ele>321</ele>
        <time>2012-11-02T13:45:31Z</time>
      </trkpt>
      <trkpt lat="43.40013" lon="5.70949">
        <ele>321</ele>
        <time>2012-11-02T13:45:33Z</time>
      </trkpt>
      <trkpt lat="43.40015" lon="5.70944">
        <ele>320</ele>
        <time>2012-11-02T13:45:36Z</time>
      </trkpt>
      <trkpt lat="43.40014" lon="5.70936">
        <ele>319</ele>
        <time>2012-11-02T13:45:40Z</time>
      </trkpt>
      <trkpt lat="43.40003" lon="5.70902">
        <ele>316</ele>
        <time>2012-11-02T13:46:01Z</time>
      </trkpt>
      <trkpt lat="43.39998" lon="5.70883">
        <ele>314</ele>
        <time>2012-11-02T13:46:19Z</time>
      </trkpt>
      <trkpt lat="43.39994" lon="5.70866">
        <ele>314</ele>
        <time>2012-11-02T13:46:33Z</time>
      </trkpt>
      <trkpt lat="43.39988" lon="5.70842">
        <ele>310</ele>
        <time>2012-11-02T13:46:52Z</time>
      </trkpt>
      <trkpt lat="43.39981" lon="5.70821">
        <ele>308</ele>
        <time>2012-11-02T13:47:10Z</time>
      </trkpt>
      <trkpt lat="43.39979" lon="5.70822">
        <ele>311</ele>
        <time>2012-11-02T13:47:25Z</time>
      </trkpt>
      <trkpt lat="43.39977" lon="5.70822">
        <ele>305</ele>
        <time>2012-11-02T13:47:52Z</time>
      </trkpt>
      <trkpt lat="43.39977" lon="5.70822">
        <ele>306</ele>
        <time>2012-11-02T13:48:32Z</time>
      </trkpt>
      <trkpt lat="43.39978" lon="5.70819">
        <ele>308</ele>
        <time>2012-11-02T13:48:58Z</time>
      </trkpt>
      <trkpt lat="43.39969" lon="5.70797">
        <ele>308</ele>
        <time>2012-11-02T13:49:15Z</time>
      </trkpt>
      <trkpt lat="43.39962" lon="5.70785">
        <ele>310</ele>
        <time>2012-11-02T13:49:32Z</time>
      </trkpt>
      <trkpt lat="43.39962" lon="5.70785">
        <ele>310</ele>
        <time>2012-11-02T13:49:46Z</time>
      </trkpt>
      <trkpt lat="43.39943" lon="5.70773">
        <ele>312</ele>
        <time>2012-11-02T13:50:04Z</time>
      </trkpt>
      <trkpt lat="43.39932" lon="5.7076">
        <ele>312</ele>
        <time>2012-11-02T13:50:20Z</time>
      </trkpt>
      <trkpt lat="43.39921" lon="5.70743">
        <ele>308</ele>
        <time>2012-11-02T13:50:38Z</time>
      </trkpt>
      <trkpt lat="43.39909" lon="5.70729">
        <ele>306</ele>
        <time>2012-11-02T13:50:54Z</time>
      </trkpt>
      <trkpt lat="43.399" lon="5.70711">
        <ele>304</ele>
        <time>2012-11-02T13:51:11Z</time>
      </trkpt>
      <trkpt lat="43.39904" lon="5.7072">
        <ele>301</ele>
        <time>2012-11-02T13:51:24Z</time>
      </trkpt>
      <trkpt lat="43.39906" lon="5.70729">
        <ele>301</ele>
        <time>2012-11-02T13:51:40Z</time>
      </trkpt>
      <trkpt lat="43.399" lon="5.70713">
        <ele>324</ele>
        <time>2012-11-02T13:52:43Z</time>
      </trkpt>
      <trkpt lat="43.39901" lon="5.70711">
        <ele>319</ele>
        <time>2012-11-02T13:52:52Z</time>
      </trkpt>
      <trkpt lat="43.399" lon="5.70699">
        <ele>307</ele>
        <time>2012-11-02T13:53:08Z</time>
      </trkpt>
      <trkpt lat="43.39893" lon="5.70678">
        <ele>302</ele>
        <time>2012-11-02T13:53:27Z</time>
      </trkpt>
      <trkpt lat="43.39887" lon="5.70666">
        <ele>303</ele>
        <time>2012-11-02T13:53:45Z</time>
      </trkpt>
      <trkpt lat="43.39882" lon="5.70656">
        <ele>304</ele>
        <time>2012-11-02T13:53:59Z</time>
      </trkpt>
      <trkpt lat="43.39873" lon="5.70639">
        <ele>306</ele>
        <time>2012-11-02T13:54:15Z</time>
      </trkpt>
      <trkpt lat="43.39858" lon="5.70627">
        <ele>309</ele>
        <time>2012-11-02T13:54:34Z</time>
      </trkpt>
      <trkpt lat="43.39841" lon="5.70621">
        <ele>305</ele>
        <time>2012-11-02T13:54:50Z</time>
      </trkpt>
      <trkpt lat="43.39826" lon="5.70622">
        <ele>302</ele>
        <time>2012-11-02T13:55:07Z</time>
      </trkpt>
      <trkpt lat="43.39816" lon="5.70618">
        <ele>302</ele>
        <time>2012-11-02T13:55:18Z</time>
      </trkpt>
      <trkpt lat="43.398" lon="5.70601">
        <ele>302</ele>
        <time>2012-11-02T13:55:38Z</time>
      </trkpt>
      <trkpt lat="43.39796" lon="5.70596">
        <ele>301</ele>
        <time>2012-11-02T13:55:49Z</time>
      </trkpt>
      <trkpt lat="43.39779" lon="5.70585">
        <ele>302</ele>
        <time>2012-11-02T13:56:07Z</time>
      </trkpt>
      <trkpt lat="43.39764" lon="5.70569">
        <ele>298</ele>
        <time>2012-11-02T13:56:27Z</time>
      </trkpt>
      <trkpt lat="43.39752" lon="5.70556">
        <ele>296</ele>
        <time>2012-11-02T13:56:44Z</time>
      </trkpt>
      <trkpt lat="43.39737" lon="5.70543">
        <ele>295</ele>
        <time>2012-11-02T13:57:02Z</time>
      </trkpt>
      <trkpt lat="43.39718" lon="5.70534">
        <ele>296</ele>
        <time>2012-11-02T13:57:21Z</time>
      </trkpt>
      <trkpt lat="43.397" lon="5.70523">
        <ele>297</ele>
        <time>2012-11-02T13:57:40Z</time>
      </trkpt>
      <trkpt lat="43.39689" lon="5.70504">
        <ele>293</ele>
        <time>2012-11-02T13:57:58Z</time>
      </trkpt>
      <trkpt lat="43.39676" lon="5.70483">
        <ele>293</ele>
        <time>2012-11-02T13:58:19Z</time>
      </trkpt>
      <trkpt lat="43.39673" lon="5.70481">
        <ele>293</ele>
        <time>2012-11-02T13:58:23Z</time>
      </trkpt>
      <trkpt lat="43.39666" lon="5.70466">
        <ele>291</ele>
        <time>2012-11-02T13:58:38Z</time>
      </trkpt>
      <trkpt lat="43.39648" lon="5.70453">
        <ele>290</ele>
        <time>2012-11-02T13:58:56Z</time>
      </trkpt>
      <trkpt lat="43.39638" lon="5.70448">
        <ele>290</ele>
        <time>2012-11-02T13:59:10Z</time>
      </trkpt>
      <trkpt lat="43.39622" lon="5.70431">
        <ele>290</ele>
        <time>2012-11-02T13:59:29Z</time>
      </trkpt>
      <trkpt lat="43.3962" lon="5.70428">
        <ele>290</ele>
        <time>2012-11-02T13:59:31Z</time>
      </trkpt>
      <trkpt lat="43.39611" lon="5.70409">
        <ele>290</ele>
        <time>2012-11-02T13:59:47Z</time>
      </trkpt>
      <trkpt lat="43.39596" lon="5.70393">
        <ele>290</ele>
        <time>2012-11-02T14:00:08Z</time>
      </trkpt>
      <trkpt lat="43.3958" lon="5.70378">
        <ele>289</ele>
        <time>2012-11-02T14:00:27Z</time>
      </trkpt>
      <trkpt lat="43.39566" lon="5.70359">
        <ele>290</ele>
        <time>2012-11-02T14:00:48Z</time>
      </trkpt>
      <trkpt lat="43.39557" lon="5.70345">
        <ele>289</ele>
        <time>2012-11-02T14:01:04Z</time>
      </trkpt>
      <trkpt lat="43.39547" lon="5.70327">
        <ele>286</ele>
        <time>2012-11-02T14:01:23Z</time>
      </trkpt>
      <trkpt lat="43.39537" lon="5.70309">
        <ele>284</ele>
        <time>2012-11-02T14:01:41Z</time>
      </trkpt>
      <trkpt lat="43.39519" lon="5.70293">
        <ele>283</ele>
        <time>2012-11-02T14:02:03Z</time>
      </trkpt>
      <trkpt lat="43.39514" lon="5.70288">
        <ele>287</ele>
        <time>2012-11-02T14:02:15Z</time>
      </trkpt>
      <trkpt lat="43.39502" lon="5.70285">
        <ele>287</ele>
        <time>2012-11-02T14:02:32Z</time>
      </trkpt>
    </trkseg>
  </trk>
</gpx>